KLM714 SMJP-EHAM
Flight info
| Callsign | KLM714 |
|---|---|
| Flight time | 8h 20m |
| Altitude | 35000 |
| Route | TODOL DCT BUXEX DCT VALOV DCT 13N050W DCT QUETN/M085F350 DCT 25N040W 30N035W/M085F370 35N030W 42N020W 45N015W/M085F390 DCT TAMEL DCT EVBAK DCT GAPLI/N0484F390 DCT GAJIT DCT ENHAQ M197 REDFA |
| Aircraft | B744/H-SDE3FGHIM1M2RWXY/LB1 |
Departure
| Time | 2026-04-29 22:08 |
|---|---|
| Airport | Johan Adolf Pengel International Airport (SMJP) |
Arrival
| Time | 2026-04-30 06:28 |
|---|---|
| Airport | Amsterdam Airport Schiphol (EHAM) |
| Time | Latitude | Longitude | Altitude | Speed | Heading |
|---|---|---|---|---|---|
| 2026-04-29 21:46 | 5.45585 | -55.19758 | 67 ft | 0 kts | 84° |
| 2026-04-29 22:03 | 5.45585 | -55.19756 | 67 ft | 2 kts | 86° |
| 2026-04-29 22:03 | 5.45582 | -55.19744 | 68 ft | 1 kts | 113° |
| 2026-04-29 22:03 | 5.45574 | -55.19738 | 58 ft | 2 kts | 140° |
| 2026-04-29 22:04 | 5.45553 | -55.19733 | 60 ft | 5 kts | 172° |
| 2026-04-29 22:04 | 5.45489 | -55.19732 | 70 ft | 12 kts | 185° |
| 2026-04-29 22:04 | 5.45451 | -55.19770 | 70 ft | 8 kts | 254° |
| 2026-04-29 22:04 | 5.45446 | -55.19862 | 68 ft | 18 kts | 269° |
| 2026-04-29 22:05 | 5.45446 | -55.20023 | 66 ft | 27 kts | 270° |
| 2026-04-29 22:05 | 5.45446 | -55.20226 | 67 ft | 27 kts | 269° |
| 2026-04-29 22:05 | 5.45360 | -55.20351 | 60 ft | 8 kts | 179° |
| 2026-04-29 22:06 | 5.45306 | -55.20338 | 57 ft | 8 kts | 151° |
| 2026-04-29 22:06 | 5.45278 | -55.20297 | 58 ft | 5 kts | 104° |
| 2026-04-29 22:06 | 5.45278 | -55.20276 | 61 ft | 0 kts | 90° |
| 2026-04-29 22:06 | 5.45278 | -55.20274 | 61 ft | 0 kts | 90° |
| 2026-04-29 22:07 | 5.45278 | -55.20272 | 61 ft | 0 kts | 90° |
| 2026-04-29 22:07 | 5.45279 | -55.20194 | 58 ft | 46 kts | 89° |
| 2026-04-29 22:07 | 5.45281 | -55.19540 | 66 ft | 140 kts | 90° |
| 2026-04-29 22:07 | 5.45281 | -55.18298 | 152 ft | 207 kts | 88° |
| 2026-04-29 22:08 | 5.45288 | -55.16750 | 678 ft | 226 kts | 88° |
| 2026-04-29 22:08 | 5.45299 | -55.15207 | 1545 ft | 220 kts | 87° |
| 2026-04-29 22:08 | 5.45320 | -55.13648 | 2150 ft | 235 kts | 88° |
| 2026-04-29 22:08 | 5.45353 | -55.11880 | 2496 ft | 269 kts | 85° |
| 2026-04-29 22:09 | 5.45964 | -55.10188 | 3934 ft | 249 kts | 51° |
| 2026-04-29 22:09 | 5.47290 | -55.09083 | 5269 ft | 252 kts | 33° |
| 2026-04-29 22:09 | 5.48894 | -55.08204 | 5939 ft | 273 kts | 28° |
| 2026-04-29 22:09 | 5.50643 | -55.07385 | 6524 ft | 277 kts | 25° |
| 2026-04-29 22:10 | 5.52402 | -55.06610 | 7667 ft | 278 kts | 25° |
| 2026-04-29 22:10 | 5.54200 | -55.05810 | 8609 ft | 285 kts | 26° |
| 2026-04-29 22:10 | 5.56016 | -55.04986 | 9603 ft | 290 kts | 26° |
| 2026-04-29 22:10 | 5.57759 | -55.04190 | 10266 ft | 305 kts | 26° |
| 2026-04-29 22:11 | 5.59765 | -55.03268 | 10604 ft | 332 kts | 26° |
| 2026-04-29 22:11 | 5.61945 | -55.02236 | 10902 ft | 360 kts | 27° |
| 2026-04-29 22:11 | 5.64263 | -55.01117 | 11180 ft | 385 kts | 27° |
| 2026-04-29 22:11 | 5.66729 | -54.99920 | 12063 ft | 389 kts | 27° |
| 2026-04-29 22:12 | 5.69184 | -54.98727 | 12917 ft | 395 kts | 27° |
| 2026-04-29 22:12 | 5.71668 | -54.97520 | 13760 ft | 400 kts | 27° |
| 2026-04-29 22:12 | 5.74160 | -54.96310 | 14471 ft | 405 kts | 27° |
| 2026-04-29 22:12 | 5.76704 | -54.95080 | 15183 ft | 410 kts | 27° |
| 2026-04-29 22:13 | 5.79293 | -54.93839 | 15882 ft | 414 kts | 27° |
| 2026-04-29 22:13 | 5.81914 | -54.92597 | 16603 ft | 419 kts | 27° |
| 2026-04-29 22:13 | 5.84582 | -54.91349 | 17280 ft | 423 kts | 27° |
| 2026-04-29 22:13 | 5.87279 | -54.90102 | 17977 ft | 428 kts | 27° |
| 2026-04-29 22:14 | 5.89998 | -54.88860 | 18591 ft | 432 kts | 27° |
| 2026-04-29 22:14 | 5.92753 | -54.87612 | 19165 ft | 436 kts | 27° |
| 2026-04-29 22:14 | 5.95541 | -54.86355 | 19743 ft | 440 kts | 27° |
| 2026-04-29 22:14 | 5.98363 | -54.85122 | 20301 ft | 444 kts | 27° |
| 2026-04-29 22:15 | 6.01131 | -54.83741 | 20844 ft | 445 kts | 36° |
| 2026-04-29 22:15 | 6.03554 | -54.81820 | 21382 ft | 443 kts | 48° |
| 2026-04-29 22:15 | 6.05594 | -54.79479 | 21879 ft | 445 kts | 54° |
| 2026-04-29 22:15 | 6.07430 | -54.77029 | 22390 ft | 448 kts | 56° |
| 2026-04-29 22:16 | 6.09307 | -54.74527 | 22880 ft | 452 kts | 53° |
| 2026-04-29 22:16 | 6.11429 | -54.72107 | 23370 ft | 457 kts | 49° |
| 2026-04-29 22:16 | 6.13649 | -54.69796 | 23773 ft | 461 kts | 49° |
| 2026-04-29 22:16 | 6.15773 | -54.67433 | 24185 ft | 462 kts | 52° |
| 2026-04-29 22:17 | 6.17881 | -54.64926 | 24566 ft | 466 kts | 52° |
| 2026-04-29 22:17 | 6.19993 | -54.62487 | 24951 ft | 469 kts | 50° |
| 2026-04-29 22:17 | 6.22219 | -54.60021 | 25352 ft | 473 kts | 50° |
| 2026-04-29 22:17 | 6.24404 | -54.57574 | 25707 ft | 475 kts | 50° |
| 2026-04-29 22:18 | 6.26578 | -54.55075 | 26068 ft | 478 kts | 50° |
| 2026-04-29 22:18 | 6.28779 | -54.52550 | 26420 ft | 481 kts | 50° |
| 2026-04-29 22:18 | 6.31026 | -54.50014 | 26775 ft | 484 kts | 50° |
| 2026-04-29 22:18 | 6.33271 | -54.47481 | 27119 ft | 486 kts | 50° |
| 2026-04-29 22:19 | 6.35504 | -54.44937 | 27474 ft | 489 kts | 50° |
| 2026-04-29 22:19 | 6.37761 | -54.42361 | 27798 ft | 491 kts | 50° |
| 2026-04-29 22:19 | 6.40043 | -54.39770 | 28122 ft | 494 kts | 50° |
| 2026-04-29 22:19 | 6.42338 | -54.37169 | 28435 ft | 497 kts | 50° |
| 2026-04-29 22:20 | 6.44598 | -54.34600 | 28739 ft | 499 kts | 50° |
| 2026-04-29 22:20 | 6.46902 | -54.31975 | 29023 ft | 502 kts | 50° |
| 2026-04-29 22:20 | 6.49227 | -54.29333 | 29330 ft | 504 kts | 50° |
| 2026-04-29 22:20 | 6.51551 | -54.26694 | 29591 ft | 506 kts | 50° |
| 2026-04-29 22:21 | 6.53891 | -54.24032 | 29850 ft | 509 kts | 49° |
| 2026-04-29 22:21 | 6.56255 | -54.21340 | 30095 ft | 512 kts | 49° |
| 2026-04-29 22:21 | 6.58576 | -54.18700 | 30319 ft | 514 kts | 49° |
| 2026-04-29 22:21 | 6.60976 | -54.15969 | 30550 ft | 516 kts | 49° |
| 2026-04-29 22:22 | 6.63335 | -54.13286 | 30883 ft | 515 kts | 49° |
| 2026-04-29 22:22 | 6.65694 | -54.10599 | 31207 ft | 515 kts | 49° |
| 2026-04-29 22:22 | 6.68070 | -54.07894 | 31548 ft | 514 kts | 49° |
| 2026-04-29 22:22 | 6.70434 | -54.05203 | 31894 ft | 513 kts | 48° |
| 2026-04-29 22:23 | 6.72795 | -54.02514 | 32234 ft | 513 kts | 48° |
| 2026-04-29 22:23 | 6.75178 | -53.99827 | 32593 ft | 512 kts | 44° |
| 2026-04-29 22:23 | 6.77697 | -53.97301 | 32927 ft | 512 kts | 44° |
| 2026-04-29 22:23 | 6.80231 | -53.94784 | 33279 ft | 511 kts | 44° |
| 2026-04-29 22:24 | 6.82750 | -53.92271 | 33621 ft | 511 kts | 44° |
| 2026-04-29 22:24 | 6.85246 | -53.89769 | 33964 ft | 510 kts | 44° |
| 2026-04-29 22:24 | 6.87785 | -53.87230 | 34267 ft | 510 kts | 43° |
| 2026-04-29 22:24 | 6.90304 | -53.84718 | 34542 ft | 510 kts | 43° |
| 2026-04-29 22:25 | 6.92792 | -53.82232 | 34846 ft | 510 kts | 43° |
| 2026-04-29 22:25 | 6.97881 | -53.77142 | 34882 ft | 512 kts | 43° |
| 2026-04-29 22:26 | 7.02892 | -53.72133 | 34879 ft | 510 kts | 43° |
| 2026-04-29 22:26 | 7.07923 | -53.67097 | 34879 ft | 510 kts | 43° |
| 2026-04-29 22:27 | 7.12956 | -53.62066 | 34880 ft | 510 kts | 43° |
| 2026-04-29 22:27 | 7.17994 | -53.57021 | 34884 ft | 510 kts | 43° |
| 2026-04-29 22:28 | 7.23023 | -53.51989 | 34885 ft | 511 kts | 43° |
| 2026-04-29 22:28 | 7.27965 | -53.47037 | 34881 ft | 511 kts | 43° |
| 2026-04-29 22:29 | 7.32161 | -53.42834 | 34883 ft | 511 kts | 43° |
| 2026-04-29 22:29 | 7.38069 | -53.36912 | 34890 ft | 512 kts | 43° |
| 2026-04-29 22:30 | 7.43120 | -53.31851 | 34888 ft | 512 kts | 43° |
| 2026-04-29 22:30 | 7.48133 | -53.26821 | 34888 ft | 512 kts | 43° |
| 2026-04-29 22:31 | 7.53196 | -53.21740 | 34891 ft | 513 kts | 43° |
| 2026-04-29 22:31 | 7.58273 | -53.16648 | 34888 ft | 513 kts | 44° |
| 2026-04-29 22:32 | 7.63342 | -53.11555 | 34891 ft | 514 kts | 43° |
| 2026-04-29 22:32 | 7.68383 | -53.06498 | 34891 ft | 514 kts | 44° |
| 2026-04-29 22:33 | 7.73456 | -53.01397 | 34894 ft | 515 kts | 44° |
| 2026-04-29 22:33 | 7.78525 | -52.96304 | 34891 ft | 515 kts | 44° |
| 2026-04-29 22:34 | 7.83596 | -52.91205 | 34894 ft | 516 kts | 44° |
| 2026-04-29 22:34 | 7.88690 | -52.86082 | 34897 ft | 516 kts | 44° |
| 2026-04-29 22:35 | 7.93778 | -52.80962 | 34896 ft | 516 kts | 44° |
| 2026-04-29 22:35 | 7.98859 | -52.75848 | 34898 ft | 517 kts | 44° |
| 2026-04-29 22:36 | 8.03922 | -52.70751 | 34902 ft | 517 kts | 44° |
| 2026-04-29 22:36 | 8.09015 | -52.65620 | 34901 ft | 517 kts | 44° |
| 2026-04-29 22:37 | 8.14127 | -52.60470 | 34903 ft | 518 kts | 44° |
| 2026-04-29 22:37 | 8.19203 | -52.55353 | 34904 ft | 517 kts | 44° |
| 2026-04-29 22:38 | 8.24307 | -52.50206 | 34905 ft | 517 kts | 44° |
| 2026-04-29 22:38 | 8.29380 | -52.45089 | 34906 ft | 517 kts | 45° |
| 2026-04-29 22:39 | 8.34476 | -52.39945 | 34910 ft | 517 kts | 45° |
| 2026-04-29 22:39 | 8.39568 | -52.34805 | 34908 ft | 518 kts | 45° |
| 2026-04-29 22:40 | 8.43839 | -52.30492 | 34910 ft | 518 kts | 45° |
| 2026-04-29 22:40 | 8.48885 | -52.25393 | 34913 ft | 517 kts | 45° |
| 2026-04-29 22:41 | 8.53985 | -52.20238 | 34912 ft | 517 kts | 45° |
| 2026-04-29 22:41 | 8.59075 | -52.15092 | 34915 ft | 517 kts | 45° |
| 2026-04-29 22:42 | 8.64159 | -52.09949 | 34915 ft | 517 kts | 45° |
| 2026-04-29 22:42 | 8.69211 | -52.04837 | 34916 ft | 517 kts | 45° |
| 2026-04-29 22:43 | 8.74293 | -51.99692 | 34918 ft | 516 kts | 45° |
| 2026-04-29 22:43 | 8.79364 | -51.94556 | 34915 ft | 516 kts | 45° |
| 2026-04-29 22:44 | 8.84443 | -51.89410 | 34918 ft | 516 kts | 45° |
| 2026-04-29 22:44 | 8.89526 | -51.84258 | 34922 ft | 516 kts | 45° |
| 2026-04-29 22:45 | 8.94542 | -51.79167 | 34928 ft | 512 kts | 43° |
| 2026-04-29 22:45 | 8.97044 | -51.76628 | 34911 ft | 501 kts | 43° |
| 2026-04-29 22:45 | 9.00301 | -51.73331 | 34911 ft | 500 kts | 43° |
| 2026-04-29 22:46 | 9.04417 | -51.69152 | 34911 ft | 503 kts | 43° |
| 2026-04-29 22:46 | 9.09374 | -51.64119 | 34917 ft | 503 kts | 43° |
| 2026-04-29 22:47 | 9.14279 | -51.59137 | 34919 ft | 503 kts | 43° |
| 2026-04-29 22:47 | 9.19219 | -51.54117 | 34916 ft | 503 kts | 43° |
| 2026-04-29 22:48 | 9.24160 | -51.49094 | 34919 ft | 503 kts | 43° |
| 2026-04-29 22:48 | 9.28233 | -51.44952 | 34919 ft | 503 kts | 43° |
| 2026-04-29 22:49 | 9.32787 | -51.40319 | 34918 ft | 504 kts | 43° |
| 2026-04-29 22:49 | 9.37750 | -51.35269 | 34929 ft | 505 kts | 43° |
| 2026-04-29 22:50 | 9.42678 | -51.30251 | 34926 ft | 505 kts | 43° |
| 2026-04-29 22:50 | 9.47619 | -51.25218 | 34924 ft | 504 kts | 43° |
| 2026-04-29 22:51 | 9.52567 | -51.20176 | 34931 ft | 504 kts | 43° |
| 2026-04-29 22:51 | 9.59997 | -51.12600 | 34932 ft | 505 kts | 43° |
| 2026-04-29 22:52 | 9.64898 | -51.07650 | 34934 ft | 504 kts | 38° |
| 2026-04-29 22:52 | 9.70785 | -51.04019 | 34950 ft | 498 kts | 18° |
| 2026-04-29 22:53 | 9.77414 | -51.01879 | 34931 ft | 497 kts | 15° |
| 2026-04-29 22:53 | 9.83994 | -50.99838 | 34938 ft | 497 kts | 15° |
| 2026-04-29 22:54 | 9.90598 | -50.97766 | 34941 ft | 496 kts | 15° |
| 2026-04-29 22:54 | 9.97199 | -50.95708 | 34940 ft | 496 kts | 15° |
| 2026-04-29 22:55 | 10.03816 | -50.93635 | 34939 ft | 497 kts | 15° |
| 2026-04-29 22:55 | 10.10368 | -50.91587 | 34946 ft | 497 kts | 15° |
| 2026-04-29 22:56 | 10.16981 | -50.89516 | 34944 ft | 497 kts | 15° |
| 2026-04-29 22:56 | 10.23597 | -50.87445 | 34945 ft | 497 kts | 15° |
| 2026-04-29 22:57 | 10.30213 | -50.85372 | 34944 ft | 498 kts | 15° |
| 2026-04-29 22:57 | 10.35246 | -50.83795 | 34949 ft | 498 kts | 15° |
| 2026-04-29 22:58 | 10.41895 | -50.81710 | 35356 ft | 498 kts | 15° |
| 2026-04-29 22:58 | 10.45113 | -50.80700 | 35675 ft | 497 kts | 15° |
| 2026-04-29 22:58 | 10.48363 | -50.79681 | 35963 ft | 497 kts | 15° |
| 2026-04-29 22:59 | 10.51679 | -50.78641 | 36263 ft | 496 kts | 15° |
| 2026-04-29 22:59 | 10.54972 | -50.77607 | 36543 ft | 496 kts | 15° |
| 2026-04-29 22:59 | 10.58283 | -50.76567 | 36822 ft | 495 kts | 15° |
| 2026-04-29 22:59 | 10.61569 | -50.75536 | 37094 ft | 495 kts | 15° |
| 2026-04-29 23:00 | 10.64835 | -50.74510 | 37337 ft | 494 kts | 15° |
| 2026-04-29 23:00 | 10.68120 | -50.73478 | 37592 ft | 494 kts | 15° |
| 2026-04-29 23:00 | 10.71398 | -50.72448 | 37805 ft | 494 kts | 15° |
| 2026-04-29 23:00 | 10.74688 | -50.71414 | 38052 ft | 493 kts | 15° |
| 2026-04-29 23:01 | 10.77955 | -50.70387 | 38275 ft | 492 kts | 15° |
| 2026-04-29 23:01 | 10.81248 | -50.69352 | 38484 ft | 492 kts | 15° |
| 2026-04-29 23:01 | 10.84478 | -50.68336 | 38667 ft | 492 kts | 15° |
| 2026-04-29 23:01 | 10.87746 | -50.67308 | 38811 ft | 492 kts | 15° |
| 2026-04-29 23:02 | 10.91015 | -50.66280 | 38956 ft | 492 kts | 15° |
| 2026-04-29 23:02 | 10.94296 | -50.65248 | 38942 ft | 494 kts | 15° |
| 2026-04-29 23:02 | 11.00864 | -50.63179 | 38942 ft | 493 kts | 15° |
| 2026-04-29 23:03 | 11.07407 | -50.61119 | 38940 ft | 492 kts | 15° |
| 2026-04-29 23:03 | 11.13928 | -50.59064 | 38943 ft | 492 kts | 15° |
| 2026-04-29 23:04 | 11.20495 | -50.56994 | 38946 ft | 494 kts | 15° |
| 2026-04-29 23:04 | 11.27074 | -50.54919 | 38953 ft | 493 kts | 15° |
| 2026-04-29 23:05 | 11.33587 | -50.52864 | 38947 ft | 493 kts | 15° |
| 2026-04-29 23:05 | 11.40149 | -50.50792 | 38949 ft | 492 kts | 15° |
| 2026-04-29 23:06 | 11.46698 | -50.48723 | 38946 ft | 492 kts | 15° |
| 2026-04-29 23:06 | 11.53205 | -50.46667 | 38949 ft | 492 kts | 15° |
| 2026-04-29 23:07 | 11.59789 | -50.44585 | 38952 ft | 493 kts | 15° |
| 2026-04-29 23:07 | 11.66312 | -50.42522 | 38968 ft | 493 kts | 15° |
| 2026-04-29 23:08 | 11.72881 | -50.40443 | 38970 ft | 494 kts | 15° |
| 2026-04-29 23:08 | 11.79450 | -50.38363 | 38972 ft | 494 kts | 15° |
| 2026-04-29 23:09 | 11.86030 | -50.36279 | 38974 ft | 494 kts | 15° |
| 2026-04-29 23:09 | 11.92595 | -50.34198 | 38979 ft | 494 kts | 15° |
| 2026-04-29 23:10 | 11.99138 | -50.32123 | 38978 ft | 495 kts | 15° |
| 2026-04-29 23:10 | 12.05751 | -50.30025 | 38983 ft | 495 kts | 15° |
| 2026-04-29 23:11 | 12.12292 | -50.27949 | 38984 ft | 495 kts | 15° |
| 2026-04-29 23:11 | 12.18895 | -50.25851 | 38989 ft | 496 kts | 15° |
| 2026-04-29 23:12 | 12.25490 | -50.23756 | 38992 ft | 496 kts | 15° |
| 2026-04-29 23:12 | 12.32042 | -50.21673 | 38993 ft | 496 kts | 15° |
| 2026-04-29 23:13 | 12.38643 | -50.19573 | 38994 ft | 496 kts | 15° |
| 2026-04-29 23:13 | 12.45291 | -50.17457 | 38995 ft | 497 kts | 15° |
| 2026-04-29 23:14 | 12.51867 | -50.15363 | 38995 ft | 497 kts | 15° |
| 2026-04-29 23:14 | 12.56839 | -50.13779 | 38991 ft | 497 kts | 15° |
| 2026-04-29 23:15 | 12.63345 | -50.11705 | 38998 ft | 497 kts | 15° |
| 2026-04-29 23:15 | 12.69951 | -50.09598 | 38992 ft | 498 kts | 15° |
| 2026-04-29 23:16 | 12.76576 | -50.07484 | 38998 ft | 498 kts | 15° |
| 2026-04-29 23:16 | 12.83199 | -50.05370 | 38996 ft | 499 kts | 15° |
| 2026-04-29 23:17 | 12.89833 | -50.03250 | 39001 ft | 499 kts | 15° |
| 2026-04-29 23:17 | 12.96425 | -50.01144 | 39004 ft | 499 kts | 15° |
| 2026-04-29 23:18 | 12.99678 | -49.99843 | 39027 ft | 501 kts | 26° |
| 2026-04-29 23:18 | 13.02633 | -49.97951 | 39029 ft | 505 kts | 34° |
| 2026-04-29 23:18 | 13.08248 | -49.93599 | 39002 ft | 505 kts | 35° |
| 2026-04-29 23:19 | 13.13856 | -49.89229 | 39002 ft | 505 kts | 35° |
| 2026-04-29 23:19 | 13.19456 | -49.84881 | 39008 ft | 506 kts | 35° |
| 2026-04-29 23:20 | 13.25075 | -49.80501 | 39007 ft | 507 kts | 35° |
| 2026-04-29 23:20 | 13.30676 | -49.76143 | 39003 ft | 507 kts | 35° |
| 2026-04-29 23:21 | 13.36316 | -49.71744 | 39011 ft | 508 kts | 35° |
| 2026-04-29 23:21 | 13.41940 | -49.67361 | 39008 ft | 507 kts | 35° |
| 2026-04-29 23:22 | 13.47559 | -49.62975 | 39008 ft | 508 kts | 35° |
| 2026-04-29 23:22 | 13.53176 | -49.58591 | 39007 ft | 509 kts | 35° |
| 2026-04-29 23:23 | 13.58805 | -49.54193 | 39010 ft | 508 kts | 35° |
| 2026-04-29 23:23 | 13.64430 | -49.49797 | 39011 ft | 508 kts | 35° |
| 2026-04-29 23:24 | 13.70065 | -49.45389 | 39012 ft | 508 kts | 35° |
| 2026-04-29 23:24 | 13.75666 | -49.41006 | 39014 ft | 509 kts | 35° |
| 2026-04-29 23:25 | 13.81342 | -49.36561 | 39010 ft | 510 kts | 35° |
| 2026-04-29 23:25 | 13.86944 | -49.32171 | 39017 ft | 510 kts | 35° |
| 2026-04-29 23:26 | 13.92586 | -49.27747 | 39014 ft | 509 kts | 35° |
| 2026-04-29 23:26 | 13.98225 | -49.23322 | 39012 ft | 509 kts | 35° |
| 2026-04-29 23:27 | 14.03868 | -49.18892 | 39019 ft | 510 kts | 35° |
| 2026-04-29 23:27 | 14.08559 | -49.15207 | 39018 ft | 510 kts | 35° |
| 2026-04-29 23:28 | 14.15137 | -49.10036 | 39021 ft | 510 kts | 35° |
| 2026-04-29 23:28 | 14.19854 | -49.06327 | 39020 ft | 510 kts | 35° |
| 2026-04-29 23:29 | 14.25523 | -49.01865 | 39018 ft | 511 kts | 35° |
| 2026-04-29 23:29 | 14.31145 | -48.97438 | 39019 ft | 512 kts | 35° |
| 2026-04-29 23:30 | 14.36812 | -48.92971 | 39018 ft | 511 kts | 35° |
| 2026-04-29 23:30 | 14.42449 | -48.88526 | 39024 ft | 510 kts | 35° |
| 2026-04-29 23:31 | 14.48095 | -48.84071 | 39022 ft | 510 kts | 35° |
| 2026-04-29 23:31 | 14.53703 | -48.79643 | 39023 ft | 511 kts | 35° |
| 2026-04-29 23:32 | 14.59352 | -48.75180 | 39022 ft | 512 kts | 35° |
| 2026-04-29 23:32 | 14.65017 | -48.70701 | 39025 ft | 513 kts | 35° |
| 2026-04-29 23:33 | 14.70684 | -48.66217 | 39026 ft | 513 kts | 35° |
| 2026-04-29 23:33 | 14.76347 | -48.61734 | 39028 ft | 512 kts | 35° |
| 2026-04-29 23:34 | 14.82010 | -48.57248 | 39019 ft | 511 kts | 35° |
| 2026-04-29 23:34 | 14.87623 | -48.52798 | 39020 ft | 511 kts | 35° |
| 2026-04-29 23:35 | 14.93282 | -48.48309 | 39026 ft | 512 kts | 35° |
| 2026-04-29 23:35 | 14.98947 | -48.43811 | 39023 ft | 512 kts | 35° |
| 2026-04-29 23:36 | 15.04608 | -48.39315 | 39027 ft | 512 kts | 35° |
| 2026-04-29 23:36 | 15.10262 | -48.34820 | 39026 ft | 513 kts | 35° |
| 2026-04-29 23:37 | 15.15915 | -48.30323 | 39031 ft | 513 kts | 35° |
| 2026-04-29 23:37 | 15.21543 | -48.25843 | 39034 ft | 513 kts | 35° |
| 2026-04-29 23:38 | 15.27217 | -48.21323 | 39032 ft | 514 kts | 35° |
| 2026-04-29 23:38 | 15.32891 | -48.16801 | 39034 ft | 514 kts | 35° |
| 2026-04-29 23:39 | 15.38561 | -48.12278 | 39036 ft | 515 kts | 35° |
| 2026-04-29 23:39 | 15.44246 | -48.07740 | 39037 ft | 516 kts | 35° |
| 2026-04-29 23:40 | 15.49893 | -48.03229 | 39034 ft | 516 kts | 35° |
| 2026-04-29 23:40 | 15.55585 | -47.98678 | 39035 ft | 516 kts | 35° |
| 2026-04-29 23:41 | 15.61294 | -47.94111 | 39038 ft | 517 kts | 35° |
| 2026-04-29 23:41 | 15.66989 | -47.89552 | 39037 ft | 518 kts | 35° |
| 2026-04-29 23:42 | 15.72661 | -47.85007 | 39040 ft | 518 kts | 35° |
| 2026-04-29 23:42 | 15.78363 | -47.80437 | 39038 ft | 518 kts | 35° |
| 2026-04-29 23:43 | 15.84081 | -47.75849 | 39041 ft | 518 kts | 35° |
| 2026-04-29 23:43 | 15.89794 | -47.71262 | 39044 ft | 519 kts | 35° |
| 2026-04-29 23:44 | 15.95509 | -47.66671 | 39042 ft | 519 kts | 35° |
| 2026-04-29 23:44 | 16.01204 | -47.62091 | 39045 ft | 520 kts | 35° |
| 2026-04-29 23:45 | 16.06927 | -47.57486 | 39047 ft | 520 kts | 35° |
| 2026-04-29 23:45 | 16.12644 | -47.52882 | 39043 ft | 520 kts | 35° |
| 2026-04-29 23:46 | 16.18367 | -47.48270 | 39044 ft | 520 kts | 35° |
| 2026-04-29 23:46 | 16.24066 | -47.43674 | 39046 ft | 520 kts | 35° |
| 2026-04-29 23:47 | 16.29814 | -47.39035 | 39045 ft | 520 kts | 35° |
| 2026-04-29 23:47 | 16.35539 | -47.34411 | 39042 ft | 521 kts | 35° |
| 2026-04-29 23:48 | 16.41274 | -47.29775 | 39045 ft | 521 kts | 35° |
| 2026-04-29 23:48 | 16.46958 | -47.25178 | 39049 ft | 521 kts | 35° |
| 2026-04-29 23:49 | 16.52686 | -47.20540 | 39036 ft | 522 kts | 35° |
| 2026-04-29 23:49 | 16.58429 | -47.15887 | 39036 ft | 522 kts | 35° |
| 2026-04-29 23:50 | 16.64141 | -47.11256 | 39053 ft | 523 kts | 35° |
| 2026-04-29 23:51 | 16.72758 | -47.04262 | 39041 ft | 523 kts | 35° |
| 2026-04-29 23:51 | 16.78496 | -46.99601 | 39043 ft | 523 kts | 35° |
| 2026-04-29 23:52 | 16.84242 | -46.94929 | 39046 ft | 523 kts | 35° |
| 2026-04-29 23:52 | 16.89987 | -46.90254 | 39052 ft | 524 kts | 35° |
| 2026-04-29 23:53 | 16.95743 | -46.85567 | 39045 ft | 524 kts | 35° |
| 2026-04-29 23:53 | 17.01498 | -46.80877 | 39051 ft | 524 kts | 35° |
| 2026-04-29 23:54 | 17.07199 | -46.76227 | 39047 ft | 524 kts | 35° |
| 2026-04-29 23:54 | 17.12960 | -46.71524 | 39059 ft | 525 kts | 35° |
| 2026-04-29 23:55 | 17.18719 | -46.66819 | 39057 ft | 525 kts | 35° |
| 2026-04-29 23:55 | 17.24460 | -46.62125 | 39058 ft | 524 kts | 35° |
| 2026-04-29 23:56 | 17.30222 | -46.57411 | 39054 ft | 524 kts | 35° |
| 2026-04-29 23:56 | 17.35938 | -46.52730 | 39058 ft | 525 kts | 35° |
| 2026-04-29 23:57 | 17.41692 | -46.48013 | 39056 ft | 526 kts | 35° |
| 2026-04-29 23:57 | 17.47460 | -46.43282 | 39058 ft | 526 kts | 35° |
| 2026-04-29 23:58 | 17.53216 | -46.38557 | 39057 ft | 526 kts | 35° |
| 2026-04-29 23:58 | 17.58981 | -46.33820 | 39060 ft | 526 kts | 35° |
| 2026-04-29 23:59 | 17.64744 | -46.29081 | 39059 ft | 527 kts | 35° |
| 2026-04-29 23:59 | 17.70528 | -46.24320 | 39063 ft | 527 kts | 35° |
| 2026-04-30 00:00 | 17.76272 | -46.19590 | 39063 ft | 528 kts | 35° |
| 2026-04-30 00:00 | 17.82091 | -46.14792 | 39058 ft | 528 kts | 35° |
| 2026-04-30 00:01 | 17.87841 | -46.10048 | 39062 ft | 529 kts | 35° |
| 2026-04-30 00:01 | 17.93626 | -46.05270 | 39062 ft | 529 kts | 35° |
| 2026-04-30 00:02 | 17.99397 | -46.00500 | 39063 ft | 529 kts | 35° |
| 2026-04-30 00:02 | 18.05227 | -45.95767 | 39061 ft | 529 kts | 33° |
| 2026-04-30 00:03 | 18.11045 | -45.91091 | 39064 ft | 530 kts | 34° |
| 2026-04-30 00:03 | 18.16889 | -45.86343 | 39066 ft | 530 kts | 34° |
| 2026-04-30 00:04 | 18.22735 | -45.81626 | 39066 ft | 530 kts | 34° |
| 2026-04-30 00:04 | 18.28594 | -45.76868 | 39070 ft | 531 kts | 34° |
| 2026-04-30 00:05 | 18.34414 | -45.72155 | 39070 ft | 531 kts | 34° |
| 2026-04-30 00:05 | 18.40274 | -45.67394 | 39060 ft | 531 kts | 34° |
| 2026-04-30 00:06 | 18.46131 | -45.62639 | 39068 ft | 531 kts | 34° |
| 2026-04-30 00:06 | 18.51988 | -45.57874 | 39068 ft | 532 kts | 34° |
| 2026-04-30 00:07 | 18.57837 | -45.53115 | 39069 ft | 532 kts | 34° |
| 2026-04-30 00:07 | 18.63673 | -45.48361 | 39069 ft | 531 kts | 34° |
| 2026-04-30 00:08 | 18.69516 | -45.43597 | 39075 ft | 532 kts | 34° |
| 2026-04-30 00:08 | 18.75381 | -45.38812 | 39073 ft | 532 kts | 34° |
| 2026-04-30 00:09 | 18.81240 | -45.34026 | 39073 ft | 532 kts | 34° |
| 2026-04-30 00:09 | 18.87082 | -45.29250 | 39067 ft | 533 kts | 34° |
| 2026-04-30 00:10 | 18.92939 | -45.24458 | 39072 ft | 533 kts | 34° |
| 2026-04-30 00:10 | 18.98818 | -45.19643 | 39062 ft | 534 kts | 34° |
| 2026-04-30 00:11 | 19.04678 | -45.14839 | 39062 ft | 534 kts | 34° |
| 2026-04-30 00:11 | 19.10538 | -45.10031 | 39065 ft | 534 kts | 34° |
| 2026-04-30 00:12 | 19.16406 | -45.05212 | 39070 ft | 534 kts | 34° |
| 2026-04-30 00:12 | 19.22289 | -45.00376 | 39074 ft | 535 kts | 34° |
| 2026-04-30 00:13 | 19.28170 | -44.95537 | 39075 ft | 535 kts | 34° |
| 2026-04-30 00:13 | 19.34023 | -44.90717 | 39074 ft | 535 kts | 34° |
| 2026-04-30 00:14 | 19.39904 | -44.85869 | 39073 ft | 535 kts | 34° |
| 2026-04-30 00:14 | 19.45773 | -44.81027 | 39075 ft | 535 kts | 34° |
| 2026-04-30 00:15 | 19.51641 | -44.76181 | 39077 ft | 535 kts | 34° |
| 2026-04-30 00:15 | 19.56537 | -44.72133 | 39078 ft | 535 kts | 34° |
| 2026-04-30 00:16 | 19.63359 | -44.66489 | 39081 ft | 536 kts | 34° |
| 2026-04-30 00:16 | 19.68257 | -44.62433 | 39079 ft | 536 kts | 34° |
| 2026-04-30 00:17 | 19.74132 | -44.57563 | 39083 ft | 536 kts | 34° |
| 2026-04-30 00:17 | 19.80014 | -44.52683 | 39075 ft | 537 kts | 34° |
| 2026-04-30 00:18 | 19.85914 | -44.47783 | 39079 ft | 537 kts | 34° |
| 2026-04-30 00:18 | 19.91804 | -44.42887 | 39084 ft | 538 kts | 34° |
| 2026-04-30 00:19 | 19.97705 | -44.37977 | 39081 ft | 538 kts | 34° |
| 2026-04-30 00:19 | 20.03609 | -44.33059 | 39079 ft | 539 kts | 34° |
| 2026-04-30 00:20 | 20.09528 | -44.28124 | 39074 ft | 540 kts | 34° |
| 2026-04-30 00:20 | 20.15441 | -44.23190 | 39079 ft | 540 kts | 34° |
| 2026-04-30 00:21 | 20.21360 | -44.18245 | 39080 ft | 541 kts | 34° |
| 2026-04-30 00:21 | 20.27227 | -44.13339 | 39083 ft | 541 kts | 34° |
| 2026-04-30 00:22 | 20.33158 | -44.08374 | 39081 ft | 541 kts | 34° |
| 2026-04-30 00:22 | 20.39079 | -44.03413 | 39081 ft | 541 kts | 34° |
| 2026-04-30 00:23 | 20.44983 | -43.98461 | 39079 ft | 541 kts | 34° |
| 2026-04-30 00:23 | 20.50874 | -43.93516 | 39078 ft | 541 kts | 34° |
| 2026-04-30 00:24 | 20.56800 | -43.88535 | 39077 ft | 542 kts | 34° |
| 2026-04-30 00:24 | 20.62725 | -43.83551 | 39082 ft | 541 kts | 34° |
| 2026-04-30 00:25 | 20.68640 | -43.78569 | 39085 ft | 542 kts | 34° |
| 2026-04-30 00:25 | 20.74571 | -43.73570 | 39079 ft | 542 kts | 34° |
| 2026-04-30 00:26 | 20.80456 | -43.68603 | 39084 ft | 542 kts | 34° |
| 2026-04-30 00:26 | 20.86361 | -43.63615 | 39081 ft | 542 kts | 34° |
| 2026-04-30 00:27 | 20.92288 | -43.58603 | 39080 ft | 543 kts | 34° |
| 2026-04-30 00:27 | 20.98231 | -43.53573 | 39084 ft | 543 kts | 34° |
| 2026-04-30 00:28 | 21.04159 | -43.48550 | 39081 ft | 543 kts | 34° |
| 2026-04-30 00:28 | 21.10060 | -43.43544 | 39079 ft | 544 kts | 34° |
| 2026-04-30 00:29 | 21.15998 | -43.38502 | 39082 ft | 545 kts | 34° |
| 2026-04-30 00:29 | 21.21934 | -43.33456 | 39081 ft | 545 kts | 34° |
| 2026-04-30 00:30 | 21.27890 | -43.28388 | 39085 ft | 545 kts | 34° |
| 2026-04-30 00:30 | 21.33821 | -43.23337 | 39085 ft | 545 kts | 34° |
| 2026-04-30 00:31 | 21.39768 | -43.18265 | 39084 ft | 546 kts | 34° |
| 2026-04-30 00:31 | 21.45714 | -43.13189 | 39080 ft | 546 kts | 34° |
| 2026-04-30 00:32 | 21.51631 | -43.08133 | 39081 ft | 546 kts | 34° |
| 2026-04-30 00:32 | 21.57583 | -43.03041 | 39085 ft | 546 kts | 34° |
| 2026-04-30 00:33 | 21.63539 | -42.97940 | 39081 ft | 546 kts | 34° |
| 2026-04-30 00:33 | 21.69478 | -42.92848 | 39083 ft | 547 kts | 34° |
| 2026-04-30 00:34 | 21.75395 | -42.87770 | 39083 ft | 547 kts | 34° |
| 2026-04-30 00:34 | 21.81335 | -42.82666 | 39083 ft | 547 kts | 34° |
| 2026-04-30 00:35 | 21.87290 | -42.77544 | 39083 ft | 547 kts | 34° |
| 2026-04-30 00:35 | 21.93228 | -42.72431 | 39080 ft | 547 kts | 34° |
| 2026-04-30 00:36 | 21.99192 | -42.67290 | 39065 ft | 548 kts | 34° |
| 2026-04-30 00:36 | 22.05146 | -42.62151 | 39078 ft | 548 kts | 34° |
| 2026-04-30 00:37 | 22.11085 | -42.57021 | 39076 ft | 548 kts | 34° |
| 2026-04-30 00:37 | 22.17002 | -42.51902 | 39077 ft | 547 kts | 34° |
| 2026-04-30 00:38 | 22.22934 | -42.46766 | 39081 ft | 547 kts | 34° |
| 2026-04-30 00:38 | 22.28871 | -42.41619 | 39078 ft | 547 kts | 34° |
| 2026-04-30 00:39 | 22.34822 | -42.36455 | 39079 ft | 547 kts | 34° |
| 2026-04-30 00:39 | 22.40746 | -42.31308 | 39081 ft | 546 kts | 34° |
| 2026-04-30 00:40 | 22.46636 | -42.26185 | 39082 ft | 546 kts | 34° |
| 2026-04-30 00:40 | 22.52572 | -42.21017 | 39081 ft | 547 kts | 34° |
| 2026-04-30 00:41 | 22.58459 | -42.15884 | 39086 ft | 546 kts | 34° |
| 2026-04-30 00:41 | 22.64376 | -42.10721 | 39079 ft | 546 kts | 34° |
| 2026-04-30 00:42 | 22.70282 | -42.05560 | 39085 ft | 546 kts | 34° |
| 2026-04-30 00:42 | 22.76189 | -42.00393 | 39080 ft | 545 kts | 34° |
| 2026-04-30 00:43 | 22.82096 | -41.95220 | 39084 ft | 546 kts | 34° |
| 2026-04-30 00:43 | 22.88008 | -41.90037 | 39083 ft | 546 kts | 34° |
| 2026-04-30 00:44 | 22.93897 | -41.84867 | 39077 ft | 546 kts | 34° |
| 2026-04-30 00:44 | 22.99833 | -41.79651 | 39081 ft | 546 kts | 34° |
| 2026-04-30 00:45 | 23.05712 | -41.74479 | 39079 ft | 546 kts | 34° |
| 2026-04-30 00:45 | 23.11607 | -41.69285 | 39083 ft | 546 kts | 34° |
| 2026-04-30 00:46 | 23.17517 | -41.64074 | 39069 ft | 547 kts | 34° |
| 2026-04-30 00:46 | 23.23419 | -41.58864 | 39076 ft | 547 kts | 34° |
| 2026-04-30 00:47 | 23.29338 | -41.53632 | 39075 ft | 547 kts | 34° |
| 2026-04-30 00:47 | 23.35213 | -41.48432 | 39084 ft | 547 kts | 34° |
| 2026-04-30 00:48 | 23.41122 | -41.43196 | 39080 ft | 547 kts | 34° |
| 2026-04-30 00:48 | 23.47020 | -41.37965 | 39081 ft | 547 kts | 34° |
| 2026-04-30 00:49 | 23.52894 | -41.32748 | 39081 ft | 547 kts | 34° |
| 2026-04-30 00:49 | 23.58793 | -41.27503 | 39083 ft | 547 kts | 34° |
| 2026-04-30 00:50 | 23.64702 | -41.22242 | 39084 ft | 547 kts | 34° |
| 2026-04-30 00:50 | 23.70591 | -41.16993 | 39083 ft | 547 kts | 34° |
| 2026-04-30 00:51 | 23.76483 | -41.11735 | 39082 ft | 546 kts | 34° |
| 2026-04-30 00:51 | 23.82333 | -41.06509 | 39088 ft | 546 kts | 34° |
| 2026-04-30 00:52 | 23.88220 | -41.01242 | 39086 ft | 546 kts | 34° |
| 2026-04-30 00:52 | 23.94090 | -40.95985 | 39084 ft | 546 kts | 33° |
| 2026-04-30 00:53 | 23.99957 | -40.90723 | 39083 ft | 545 kts | 33° |
| 2026-04-30 00:53 | 24.05850 | -40.85433 | 39081 ft | 546 kts | 33° |
| 2026-04-30 00:54 | 24.11672 | -40.80199 | 39083 ft | 546 kts | 33° |
| 2026-04-30 00:54 | 24.17544 | -40.74914 | 39086 ft | 546 kts | 33° |
| 2026-04-30 00:55 | 24.23406 | -40.69632 | 39084 ft | 546 kts | 33° |
| 2026-04-30 00:55 | 24.32181 | -40.61713 | 39086 ft | 545 kts | 33° |
| 2026-04-30 00:56 | 24.38040 | -40.56416 | 39086 ft | 545 kts | 33° |
| 2026-04-30 00:56 | 24.43893 | -40.51119 | 39090 ft | 545 kts | 33° |
| 2026-04-30 00:57 | 24.49705 | -40.45853 | 39091 ft | 545 kts | 33° |
| 2026-04-30 00:57 | 24.55573 | -40.40529 | 39089 ft | 545 kts | 33° |
| 2026-04-30 00:58 | 24.61386 | -40.35247 | 39093 ft | 544 kts | 33° |
| 2026-04-30 00:58 | 24.67200 | -40.29960 | 39090 ft | 543 kts | 33° |
| 2026-04-30 00:59 | 24.73043 | -40.24639 | 39093 ft | 544 kts | 33° |
| 2026-04-30 00:59 | 24.78879 | -40.19317 | 39089 ft | 544 kts | 33° |
| 2026-04-30 01:00 | 24.84691 | -40.14012 | 39094 ft | 544 kts | 33° |
| 2026-04-30 01:00 | 24.90498 | -40.08703 | 39091 ft | 545 kts | 33° |
| 2026-04-30 01:01 | 24.96338 | -40.03358 | 39097 ft | 545 kts | 34° |
| 2026-04-30 01:01 | 25.02173 | -39.97997 | 39091 ft | 546 kts | 34° |
| 2026-04-30 01:02 | 25.07927 | -39.92517 | 39093 ft | 547 kts | 35° |
| 2026-04-30 01:02 | 25.13691 | -39.87119 | 39079 ft | 547 kts | 34° |
| 2026-04-30 01:03 | 25.19471 | -39.81643 | 39082 ft | 547 kts | 35° |
| 2026-04-30 01:03 | 25.25261 | -39.76180 | 39085 ft | 549 kts | 34° |
| 2026-04-30 01:04 | 25.30104 | -39.71596 | 39089 ft | 551 kts | 35° |
| 2026-04-30 01:04 | 25.35935 | -39.66067 | 39094 ft | 552 kts | 34° |
| 2026-04-30 01:05 | 25.41764 | -39.60540 | 39093 ft | 552 kts | 34° |
| 2026-04-30 01:05 | 25.47582 | -39.55009 | 39094 ft | 553 kts | 34° |
| 2026-04-30 01:06 | 25.53437 | -39.49442 | 39094 ft | 553 kts | 34° |
| 2026-04-30 01:06 | 25.59286 | -39.43870 | 39091 ft | 554 kts | 34° |
| 2026-04-30 01:07 | 25.65126 | -39.38300 | 39097 ft | 554 kts | 34° |
| 2026-04-30 01:07 | 25.70991 | -39.32698 | 39097 ft | 555 kts | 34° |
| 2026-04-30 01:08 | 25.76801 | -39.27142 | 39097 ft | 556 kts | 34° |
| 2026-04-30 01:08 | 25.82649 | -39.21540 | 39095 ft | 555 kts | 34° |
| 2026-04-30 01:09 | 25.88512 | -39.15919 | 39090 ft | 555 kts | 34° |
| 2026-04-30 01:09 | 25.94322 | -39.10339 | 39092 ft | 555 kts | 34° |
| 2026-04-30 01:10 | 26.00192 | -39.04695 | 39094 ft | 555 kts | 34° |
| 2026-04-30 01:10 | 26.06021 | -38.99082 | 39095 ft | 555 kts | 34° |
| 2026-04-30 01:11 | 26.11853 | -38.93459 | 39095 ft | 555 kts | 34° |
| 2026-04-30 01:11 | 26.17649 | -38.87862 | 39094 ft | 555 kts | 34° |
| 2026-04-30 01:12 | 26.23499 | -38.82206 | 39096 ft | 555 kts | 33° |
| 2026-04-30 01:12 | 26.29303 | -38.76587 | 39091 ft | 555 kts | 33° |
| 2026-04-30 01:13 | 26.35117 | -38.70950 | 39092 ft | 555 kts | 33° |
| 2026-04-30 01:13 | 26.40946 | -38.65291 | 39097 ft | 555 kts | 33° |
| 2026-04-30 01:14 | 26.46785 | -38.59613 | 39087 ft | 556 kts | 33° |
| 2026-04-30 01:14 | 26.52624 | -38.53929 | 39084 ft | 556 kts | 33° |
| 2026-04-30 01:15 | 26.58437 | -38.48261 | 39090 ft | 556 kts | 33° |
| 2026-04-30 01:15 | 26.64234 | -38.42601 | 39095 ft | 556 kts | 33° |
| 2026-04-30 01:16 | 26.70069 | -38.36896 | 39096 ft | 555 kts | 33° |
| 2026-04-30 01:16 | 26.75875 | -38.31211 | 39094 ft | 555 kts | 33° |
| 2026-04-30 01:17 | 26.81701 | -38.25500 | 39097 ft | 555 kts | 33° |
| 2026-04-30 01:17 | 26.87489 | -38.19817 | 39093 ft | 555 kts | 33° |
| 2026-04-30 01:18 | 26.93265 | -38.14137 | 39092 ft | 555 kts | 33° |
| 2026-04-30 01:18 | 26.99076 | -38.08415 | 39095 ft | 555 kts | 34° |
| 2026-04-30 01:19 | 27.04874 | -38.02698 | 39096 ft | 553 kts | 34° |
| 2026-04-30 01:19 | 27.10639 | -37.97006 | 39099 ft | 552 kts | 34° |
| 2026-04-30 01:20 | 27.16387 | -37.91321 | 39099 ft | 551 kts | 34° |
| 2026-04-30 01:20 | 27.22131 | -37.85633 | 39100 ft | 550 kts | 34° |
| 2026-04-30 01:21 | 27.27869 | -37.79943 | 39097 ft | 549 kts | 34° |
| 2026-04-30 01:21 | 27.33572 | -37.74278 | 39101 ft | 546 kts | 34° |
| 2026-04-30 01:22 | 27.39267 | -37.68615 | 39101 ft | 545 kts | 35° |
| 2026-04-30 01:22 | 27.44899 | -37.63005 | 39100 ft | 543 kts | 35° |
| 2026-04-30 01:23 | 27.50586 | -37.57334 | 39096 ft | 543 kts | 35° |
| 2026-04-30 01:23 | 27.56205 | -37.51721 | 39095 ft | 542 kts | 35° |
| 2026-04-30 01:24 | 27.61837 | -37.46088 | 39098 ft | 541 kts | 36° |
| 2026-04-30 01:24 | 27.67456 | -37.40459 | 39097 ft | 540 kts | 36° |
| 2026-04-30 01:25 | 27.73054 | -37.34844 | 39095 ft | 539 kts | 36° |
| 2026-04-30 01:25 | 27.78665 | -37.29208 | 39099 ft | 539 kts | 36° |
| 2026-04-30 01:26 | 27.84259 | -37.23580 | 39100 ft | 538 kts | 36° |
| 2026-04-30 01:26 | 27.89850 | -37.17947 | 39098 ft | 537 kts | 36° |
| 2026-04-30 01:27 | 27.95427 | -37.12320 | 39099 ft | 536 kts | 36° |
| 2026-04-30 01:27 | 28.00988 | -37.06701 | 39086 ft | 534 kts | 37° |
| 2026-04-30 01:28 | 28.06479 | -37.01145 | 39087 ft | 533 kts | 37° |
| 2026-04-30 01:28 | 28.12007 | -36.95544 | 39087 ft | 532 kts | 37° |
| 2026-04-30 01:29 | 28.17522 | -36.89949 | 39094 ft | 531 kts | 37° |
| 2026-04-30 01:29 | 28.23015 | -36.84366 | 39099 ft | 530 kts | 37° |
| 2026-04-30 01:30 | 28.28500 | -36.78785 | 39096 ft | 529 kts | 37° |
| 2026-04-30 01:30 | 28.33954 | -36.73226 | 39096 ft | 528 kts | 37° |
| 2026-04-30 01:31 | 28.39415 | -36.67653 | 39097 ft | 527 kts | 37° |
| 2026-04-30 01:31 | 28.44872 | -36.62075 | 39099 ft | 527 kts | 37° |
| 2026-04-30 01:32 | 28.50316 | -36.56503 | 39095 ft | 525 kts | 37° |
| 2026-04-30 01:32 | 28.55740 | -36.50943 | 39093 ft | 524 kts | 37° |
| 2026-04-30 01:33 | 28.61134 | -36.45406 | 39093 ft | 524 kts | 37° |
| 2026-04-30 01:33 | 28.66553 | -36.39835 | 39095 ft | 524 kts | 38° |
| 2026-04-30 01:34 | 28.71961 | -36.34268 | 39097 ft | 524 kts | 38° |
| 2026-04-30 01:34 | 28.77378 | -36.28683 | 39090 ft | 524 kts | 38° |
| 2026-04-30 01:35 | 28.82785 | -36.23101 | 39099 ft | 524 kts | 38° |
| 2026-04-30 01:35 | 28.88175 | -36.17527 | 39097 ft | 524 kts | 38° |
| 2026-04-30 01:36 | 28.93589 | -36.11920 | 39096 ft | 524 kts | 38° |
| 2026-04-30 01:36 | 28.98951 | -36.06359 | 39100 ft | 524 kts | 38° |
| 2026-04-30 01:37 | 29.04344 | -36.00759 | 39091 ft | 524 kts | 38° |
| 2026-04-30 01:37 | 29.09728 | -35.95158 | 39100 ft | 523 kts | 38° |
| 2026-04-30 01:38 | 29.15105 | -35.89558 | 39101 ft | 523 kts | 38° |
| 2026-04-30 01:38 | 29.20463 | -35.83968 | 39085 ft | 522 kts | 38° |
| 2026-04-30 01:39 | 29.25827 | -35.78365 | 39088 ft | 522 kts | 38° |
| 2026-04-30 01:39 | 29.31198 | -35.72745 | 39093 ft | 521 kts | 37° |
| 2026-04-30 01:40 | 29.36552 | -35.67135 | 39097 ft | 521 kts | 37° |
| 2026-04-30 01:40 | 29.41892 | -35.61531 | 39094 ft | 520 kts | 37° |
| 2026-04-30 01:41 | 29.47232 | -35.55917 | 39095 ft | 520 kts | 37° |
| 2026-04-30 01:41 | 29.52553 | -35.50318 | 39099 ft | 519 kts | 37° |
| 2026-04-30 01:42 | 29.57852 | -35.44731 | 39095 ft | 519 kts | 37° |
| 2026-04-30 01:42 | 29.63163 | -35.39125 | 39095 ft | 519 kts | 37° |
| 2026-04-30 01:43 | 29.68478 | -35.33505 | 39098 ft | 519 kts | 37° |
| 2026-04-30 01:43 | 29.73787 | -35.27883 | 39096 ft | 518 kts | 37° |
| 2026-04-30 01:44 | 29.79090 | -35.22260 | 39088 ft | 518 kts | 37° |
| 2026-04-30 01:44 | 29.84388 | -35.16633 | 39090 ft | 518 kts | 37° |
| 2026-04-30 01:45 | 29.89687 | -35.10996 | 39091 ft | 518 kts | 37° |
| 2026-04-30 01:45 | 29.94959 | -35.05381 | 39089 ft | 517 kts | 37° |
| 2026-04-30 01:46 | 30.00254 | -34.99767 | 39091 ft | 514 kts | 33° |
| 2026-04-30 01:46 | 30.05801 | -34.94609 | 39088 ft | 512 kts | 33° |
| 2026-04-30 01:47 | 30.11358 | -34.89433 | 39088 ft | 513 kts | 33° |
| 2026-04-30 01:47 | 30.16904 | -34.84257 | 39085 ft | 512 kts | 33° |
| 2026-04-30 01:48 | 30.22430 | -34.79099 | 39085 ft | 512 kts | 33° |
| 2026-04-30 01:48 | 30.27993 | -34.73890 | 39085 ft | 512 kts | 33° |
| 2026-04-30 01:49 | 30.33507 | -34.68726 | 39088 ft | 512 kts | 33° |
| 2026-04-30 01:49 | 30.39054 | -34.63520 | 39083 ft | 513 kts | 33° |
| 2026-04-30 01:50 | 30.43665 | -34.59188 | 39082 ft | 514 kts | 33° |
| 2026-04-30 01:50 | 30.49232 | -34.53949 | 39078 ft | 514 kts | 33° |
| 2026-04-30 01:51 | 30.54790 | -34.48711 | 39078 ft | 515 kts | 33° |
| 2026-04-30 01:51 | 30.60338 | -34.43475 | 39076 ft | 515 kts | 33° |
| 2026-04-30 01:52 | 30.66801 | -34.37364 | 39075 ft | 515 kts | 33° |
| 2026-04-30 01:52 | 30.71465 | -34.32948 | 39073 ft | 516 kts | 33° |
| 2026-04-30 01:53 | 30.77004 | -34.27697 | 39073 ft | 516 kts | 33° |
| 2026-04-30 01:53 | 30.82573 | -34.22408 | 39070 ft | 517 kts | 33° |
| 2026-04-30 01:54 | 30.88152 | -34.17101 | 39073 ft | 517 kts | 33° |
| 2026-04-30 01:54 | 30.93702 | -34.11815 | 39059 ft | 518 kts | 33° |
| 2026-04-30 01:55 | 30.99284 | -34.06488 | 39062 ft | 518 kts | 33° |
| 2026-04-30 01:55 | 31.04876 | -34.01146 | 39064 ft | 519 kts | 33° |
| 2026-04-30 01:56 | 31.10472 | -33.95790 | 39057 ft | 521 kts | 33° |
| 2026-04-30 01:56 | 31.16066 | -33.90427 | 39060 ft | 521 kts | 33° |
| 2026-04-30 01:57 | 31.21636 | -33.85079 | 39060 ft | 521 kts | 33° |
| 2026-04-30 01:57 | 31.27221 | -33.79709 | 39059 ft | 521 kts | 33° |
| 2026-04-30 01:58 | 31.32842 | -33.74295 | 39054 ft | 522 kts | 33° |
| 2026-04-30 01:58 | 31.38469 | -33.68867 | 39051 ft | 522 kts | 33° |
| 2026-04-30 01:59 | 31.46820 | -33.60795 | 39059 ft | 521 kts | 33° |
| 2026-04-30 02:00 | 31.52410 | -33.55380 | 39048 ft | 521 kts | 33° |
| 2026-04-30 02:00 | 31.58001 | -33.49956 | 39051 ft | 520 kts | 33° |
| 2026-04-30 02:01 | 31.63573 | -33.44544 | 39057 ft | 521 kts | 33° |
| 2026-04-30 02:01 | 31.69155 | -33.39111 | 39047 ft | 523 kts | 33° |
| 2026-04-30 02:02 | 31.74758 | -33.33649 | 39055 ft | 523 kts | 33° |
| 2026-04-30 02:02 | 31.80361 | -33.28178 | 39049 ft | 522 kts | 33° |
| 2026-04-30 02:03 | 31.85951 | -33.22711 | 39037 ft | 523 kts | 33° |
| 2026-04-30 02:03 | 31.91541 | -33.17236 | 39041 ft | 523 kts | 33° |
| 2026-04-30 02:04 | 31.97119 | -33.11762 | 39045 ft | 525 kts | 33° |
| 2026-04-30 02:04 | 32.02743 | -33.06235 | 39047 ft | 525 kts | 33° |
| 2026-04-30 02:05 | 32.08346 | -33.00720 | 39042 ft | 525 kts | 33° |
| 2026-04-30 02:05 | 32.13932 | -32.95212 | 39045 ft | 526 kts | 33° |
| 2026-04-30 02:06 | 32.19546 | -32.89667 | 39041 ft | 527 kts | 33° |
| 2026-04-30 02:06 | 32.25184 | -32.84089 | 39041 ft | 528 kts | 33° |
| 2026-04-30 02:07 | 32.30813 | -32.78511 | 39039 ft | 529 kts | 33° |
| 2026-04-30 02:07 | 32.36458 | -32.72907 | 39028 ft | 529 kts | 33° |
| 2026-04-30 02:08 | 32.42067 | -32.67331 | 39034 ft | 529 kts | 33° |
| 2026-04-30 02:08 | 32.47729 | -32.61691 | 39037 ft | 529 kts | 33° |
| 2026-04-30 02:09 | 32.53327 | -32.56106 | 39033 ft | 529 kts | 33° |
| 2026-04-30 02:09 | 32.58969 | -32.50468 | 39030 ft | 530 kts | 33° |
| 2026-04-30 02:10 | 32.64610 | -32.44820 | 39025 ft | 531 kts | 33° |
| 2026-04-30 02:10 | 32.70232 | -32.39183 | 39024 ft | 531 kts | 33° |
| 2026-04-30 02:11 | 32.75882 | -32.33506 | 39025 ft | 531 kts | 33° |
| 2026-04-30 02:11 | 32.81516 | -32.27837 | 39021 ft | 531 kts | 33° |
| 2026-04-30 02:12 | 32.87167 | -32.22142 | 39019 ft | 531 kts | 33° |
| 2026-04-30 02:12 | 32.92809 | -32.16445 | 39020 ft | 532 kts | 33° |
| 2026-04-30 02:13 | 32.98438 | -32.10751 | 39012 ft | 532 kts | 33° |
| 2026-04-30 02:13 | 33.04058 | -32.05056 | 39015 ft | 532 kts | 33° |
| 2026-04-30 02:14 | 33.09709 | -31.99321 | 39014 ft | 532 kts | 33° |
| 2026-04-30 02:14 | 33.15356 | -31.93579 | 39011 ft | 532 kts | 33° |
| 2026-04-30 02:15 | 33.20984 | -31.87847 | 39014 ft | 533 kts | 33° |
| 2026-04-30 02:15 | 33.26593 | -31.82124 | 39009 ft | 533 kts | 33° |
| 2026-04-30 02:16 | 33.32239 | -31.76352 | 38996 ft | 534 kts | 33° |
| 2026-04-30 02:16 | 33.37889 | -31.70568 | 39009 ft | 534 kts | 33° |
| 2026-04-30 02:17 | 33.43532 | -31.64779 | 39000 ft | 534 kts | 33° |
| 2026-04-30 02:17 | 33.49173 | -31.58980 | 39005 ft | 534 kts | 33° |
| 2026-04-30 02:18 | 33.54774 | -31.53216 | 39003 ft | 533 kts | 33° |
| 2026-04-30 02:18 | 33.60401 | -31.47413 | 38999 ft | 533 kts | 33° |
| 2026-04-30 02:19 | 33.66035 | -31.41592 | 38996 ft | 533 kts | 33° |
| 2026-04-30 02:19 | 33.71655 | -31.35776 | 38990 ft | 533 kts | 33° |
| 2026-04-30 02:20 | 33.77257 | -31.29967 | 38994 ft | 533 kts | 33° |
| 2026-04-30 02:20 | 33.82868 | -31.24139 | 38995 ft | 533 kts | 33° |
| 2026-04-30 02:21 | 33.88478 | -31.18302 | 38997 ft | 532 kts | 33° |
| 2026-04-30 02:21 | 33.94061 | -31.12482 | 38990 ft | 532 kts | 33° |
| 2026-04-30 02:22 | 33.99652 | -31.06643 | 38986 ft | 533 kts | 33° |
| 2026-04-30 02:22 | 34.05239 | -31.00798 | 38988 ft | 533 kts | 33° |
| 2026-04-30 02:23 | 34.10829 | -30.94938 | 38974 ft | 532 kts | 33° |
| 2026-04-30 02:23 | 34.16402 | -30.89087 | 38979 ft | 531 kts | 33° |
| 2026-04-30 02:24 | 34.21996 | -30.83203 | 38975 ft | 531 kts | 33° |
| 2026-04-30 02:24 | 34.27570 | -30.77327 | 38974 ft | 530 kts | 33° |
| 2026-04-30 02:25 | 34.33095 | -30.71495 | 38978 ft | 530 kts | 33° |
| 2026-04-30 02:25 | 34.38642 | -30.65628 | 38971 ft | 529 kts | 33° |
| 2026-04-30 02:26 | 34.44190 | -30.59750 | 38968 ft | 529 kts | 33° |
| 2026-04-30 02:26 | 34.49715 | -30.53883 | 38959 ft | 528 kts | 33° |
| 2026-04-30 02:27 | 34.55246 | -30.48002 | 38958 ft | 527 kts | 33° |
| 2026-04-30 02:27 | 34.60767 | -30.42119 | 38967 ft | 526 kts | 33° |
| 2026-04-30 02:28 | 34.66225 | -30.36293 | 38957 ft | 526 kts | 33° |
| 2026-04-30 02:28 | 34.71708 | -30.30428 | 38958 ft | 525 kts | 33° |
| 2026-04-30 02:29 | 34.77200 | -30.24546 | 38956 ft | 524 kts | 33° |
| 2026-04-30 02:29 | 34.82634 | -30.18713 | 38951 ft | 523 kts | 33° |
| 2026-04-30 02:30 | 34.88092 | -30.12843 | 38952 ft | 522 kts | 33° |
| 2026-04-30 02:30 | 34.93530 | -30.06985 | 38949 ft | 521 kts | 33° |
| 2026-04-30 02:31 | 34.98946 | -30.01140 | 38944 ft | 520 kts | 33° |
| 2026-04-30 02:31 | 35.04124 | -29.94934 | 38937 ft | 525 kts | 37° |
| 2026-04-30 02:32 | 35.09282 | -29.88589 | 38944 ft | 525 kts | 37° |
| 2026-04-30 02:32 | 35.14422 | -29.82253 | 38930 ft | 525 kts | 37° |
| 2026-04-30 02:33 | 35.19567 | -29.75896 | 38925 ft | 524 kts | 37° |
| 2026-04-30 02:33 | 35.24664 | -29.69591 | 38930 ft | 524 kts | 37° |
| 2026-04-30 02:34 | 35.29779 | -29.63247 | 38928 ft | 524 kts | 37° |
| 2026-04-30 02:34 | 35.34914 | -29.56868 | 38924 ft | 523 kts | 37° |
| 2026-04-30 02:35 | 35.40011 | -29.50524 | 38925 ft | 523 kts | 37° |
| 2026-04-30 02:35 | 35.45096 | -29.44184 | 38922 ft | 523 kts | 37° |
| 2026-04-30 02:36 | 35.50184 | -29.37826 | 38916 ft | 522 kts | 37° |
| 2026-04-30 02:36 | 35.55276 | -29.31451 | 38916 ft | 522 kts | 37° |
| 2026-04-30 02:37 | 35.60367 | -29.25068 | 38912 ft | 522 kts | 37° |
| 2026-04-30 02:37 | 35.65423 | -29.18714 | 38909 ft | 522 kts | 37° |
| 2026-04-30 02:38 | 35.70497 | -29.12325 | 38904 ft | 522 kts | 37° |
| 2026-04-30 02:38 | 35.74744 | -29.06968 | 38906 ft | 522 kts | 37° |
| 2026-04-30 02:39 | 35.79792 | -29.00589 | 38900 ft | 522 kts | 37° |
| 2026-04-30 02:39 | 35.84860 | -28.94173 | 38885 ft | 522 kts | 37° |
| 2026-04-30 02:40 | 35.89932 | -28.87738 | 38887 ft | 522 kts | 37° |
| 2026-04-30 02:40 | 35.94990 | -28.81310 | 38893 ft | 523 kts | 37° |
| 2026-04-30 02:41 | 36.00072 | -28.74837 | 38885 ft | 524 kts | 37° |
| 2026-04-30 02:41 | 36.05151 | -28.68356 | 38884 ft | 525 kts | 37° |
| 2026-04-30 02:42 | 36.10206 | -28.61894 | 38879 ft | 525 kts | 37° |
| 2026-04-30 02:42 | 36.15279 | -28.55394 | 38875 ft | 526 kts | 37° |
| 2026-04-30 02:43 | 36.20371 | -28.48858 | 38876 ft | 527 kts | 37° |
| 2026-04-30 02:43 | 36.25456 | -28.42318 | 38869 ft | 527 kts | 37° |
| 2026-04-30 02:44 | 36.30545 | -28.35758 | 38865 ft | 528 kts | 37° |
| 2026-04-30 02:44 | 36.35636 | -28.29185 | 38867 ft | 528 kts | 37° |
| 2026-04-30 02:45 | 36.40702 | -28.22630 | 38859 ft | 528 kts | 37° |
| 2026-04-30 02:45 | 36.45786 | -28.16037 | 38861 ft | 528 kts | 37° |
| 2026-04-30 02:46 | 36.50864 | -28.09439 | 38856 ft | 528 kts | 37° |
| 2026-04-30 02:46 | 36.55943 | -28.02827 | 38835 ft | 528 kts | 38° |
| 2026-04-30 02:47 | 36.61025 | -27.96199 | 38843 ft | 528 kts | 38° |
| 2026-04-30 02:47 | 36.66086 | -27.89583 | 38844 ft | 528 kts | 38° |
| 2026-04-30 02:48 | 36.71119 | -27.82990 | 38839 ft | 528 kts | 38° |
| 2026-04-30 02:48 | 36.76175 | -27.76355 | 38836 ft | 528 kts | 38° |
| 2026-04-30 02:49 | 36.81227 | -27.69710 | 38832 ft | 528 kts | 38° |
| 2026-04-30 02:49 | 36.86278 | -27.63053 | 38834 ft | 528 kts | 39° |
| 2026-04-30 02:50 | 36.91347 | -27.56360 | 38828 ft | 528 kts | 39° |
| 2026-04-30 02:50 | 36.96347 | -27.49742 | 38827 ft | 527 kts | 39° |
| 2026-04-30 02:51 | 37.01385 | -27.43062 | 38825 ft | 527 kts | 39° |
| 2026-04-30 02:51 | 37.06410 | -27.36384 | 38813 ft | 527 kts | 39° |
| 2026-04-30 02:52 | 37.11439 | -27.29688 | 38822 ft | 527 kts | 40° |
| 2026-04-30 02:52 | 37.16472 | -27.22972 | 38814 ft | 528 kts | 40° |
| 2026-04-30 02:53 | 37.21477 | -27.16281 | 38816 ft | 528 kts | 40° |
| 2026-04-30 02:53 | 37.26514 | -27.09532 | 38814 ft | 528 kts | 41° |
| 2026-04-30 02:54 | 37.31525 | -27.02803 | 38808 ft | 527 kts | 41° |
| 2026-04-30 02:54 | 37.36534 | -26.96064 | 38800 ft | 527 kts | 41° |
| 2026-04-30 02:55 | 37.41518 | -26.89343 | 38802 ft | 527 kts | 42° |
| 2026-04-30 02:55 | 37.46508 | -26.82600 | 38796 ft | 527 kts | 42° |
| 2026-04-30 02:56 | 37.51498 | -26.75844 | 38798 ft | 526 kts | 42° |
| 2026-04-30 02:56 | 37.56489 | -26.69071 | 38793 ft | 526 kts | 43° |
| 2026-04-30 02:57 | 37.61464 | -26.62308 | 38797 ft | 527 kts | 43° |
| 2026-04-30 02:57 | 37.66446 | -26.55517 | 38796 ft | 527 kts | 43° |
| 2026-04-30 02:58 | 37.71440 | -26.48699 | 38799 ft | 527 kts | 43° |
| 2026-04-30 02:58 | 37.76373 | -26.41949 | 38786 ft | 528 kts | 43° |
| 2026-04-30 02:59 | 37.81354 | -26.35118 | 38794 ft | 527 kts | 43° |
| 2026-04-30 02:59 | 37.86324 | -26.28287 | 38790 ft | 526 kts | 44° |
| 2026-04-30 03:00 | 37.91268 | -26.21478 | 38791 ft | 526 kts | 44° |
| 2026-04-30 03:00 | 37.96225 | -26.14636 | 38786 ft | 526 kts | 44° |
| 2026-04-30 03:01 | 38.01139 | -26.07839 | 38787 ft | 525 kts | 44° |
| 2026-04-30 03:01 | 38.06073 | -26.01001 | 38782 ft | 524 kts | 44° |
| 2026-04-30 03:02 | 38.10970 | -25.94198 | 38787 ft | 523 kts | 45° |
| 2026-04-30 03:02 | 38.15868 | -25.87380 | 38785 ft | 523 kts | 45° |
| 2026-04-30 03:03 | 38.20784 | -25.80522 | 38790 ft | 524 kts | 45° |
| 2026-04-30 03:03 | 38.28127 | -25.70250 | 38778 ft | 523 kts | 45° |
| 2026-04-30 03:04 | 38.33027 | -25.63377 | 38795 ft | 524 kts | 45° |
| 2026-04-30 03:04 | 38.37928 | -25.56488 | 38779 ft | 524 kts | 45° |
| 2026-04-30 03:05 | 38.42784 | -25.49647 | 38791 ft | 523 kts | 46° |
| 2026-04-30 03:05 | 38.47686 | -25.42726 | 38791 ft | 523 kts | 46° |
| 2026-04-30 03:06 | 38.52540 | -25.35858 | 38790 ft | 523 kts | 46° |
| 2026-04-30 03:06 | 38.57404 | -25.28961 | 38791 ft | 523 kts | 46° |
| 2026-04-30 03:07 | 38.62271 | -25.22045 | 38793 ft | 522 kts | 46° |
| 2026-04-30 03:07 | 38.67128 | -25.15127 | 38794 ft | 522 kts | 46° |
| 2026-04-30 03:08 | 38.71979 | -25.08203 | 38791 ft | 522 kts | 46° |
| 2026-04-30 03:08 | 38.76831 | -25.01263 | 38794 ft | 521 kts | 47° |
| 2026-04-30 03:09 | 38.81629 | -24.94383 | 38794 ft | 521 kts | 47° |
| 2026-04-30 03:09 | 38.86450 | -24.87457 | 38793 ft | 521 kts | 47° |
| 2026-04-30 03:10 | 38.91260 | -24.80531 | 38790 ft | 520 kts | 47° |
| 2026-04-30 03:10 | 38.96069 | -24.73591 | 38794 ft | 520 kts | 47° |
| 2026-04-30 03:11 | 39.00886 | -24.66623 | 38793 ft | 520 kts | 47° |
| 2026-04-30 03:11 | 39.05688 | -24.59662 | 38797 ft | 519 kts | 47° |
| 2026-04-30 03:12 | 39.10463 | -24.52727 | 38798 ft | 519 kts | 47° |
| 2026-04-30 03:12 | 39.15269 | -24.45728 | 38798 ft | 520 kts | 48° |
| 2026-04-30 03:13 | 39.20013 | -24.38806 | 38799 ft | 520 kts | 48° |
| 2026-04-30 03:13 | 39.24799 | -24.31807 | 38796 ft | 520 kts | 48° |
| 2026-04-30 03:14 | 39.29584 | -24.24792 | 38797 ft | 520 kts | 48° |
| 2026-04-30 03:14 | 39.34342 | -24.17803 | 38799 ft | 519 kts | 48° |
| 2026-04-30 03:15 | 39.39106 | -24.10788 | 38801 ft | 518 kts | 48° |
| 2026-04-30 03:15 | 39.43856 | -24.03779 | 38803 ft | 517 kts | 49° |
| 2026-04-30 03:16 | 39.48592 | -23.96775 | 38802 ft | 516 kts | 49° |
| 2026-04-30 03:16 | 39.53314 | -23.89775 | 38802 ft | 516 kts | 49° |
| 2026-04-30 03:17 | 39.58018 | -23.82786 | 38802 ft | 515 kts | 49° |
| 2026-04-30 03:17 | 39.62702 | -23.75811 | 38807 ft | 514 kts | 49° |
| 2026-04-30 03:18 | 39.67394 | -23.68809 | 38805 ft | 514 kts | 49° |
| 2026-04-30 03:18 | 39.72094 | -23.61780 | 38804 ft | 514 kts | 49° |
| 2026-04-30 03:19 | 39.76780 | -23.54754 | 38806 ft | 514 kts | 49° |
| 2026-04-30 03:19 | 39.81454 | -23.47732 | 38808 ft | 514 kts | 50° |
| 2026-04-30 03:20 | 39.86140 | -23.40675 | 38810 ft | 513 kts | 50° |
| 2026-04-30 03:20 | 39.90789 | -23.33657 | 38812 ft | 513 kts | 50° |
| 2026-04-30 03:21 | 39.95442 | -23.26619 | 38809 ft | 513 kts | 50° |
| 2026-04-30 03:21 | 40.00073 | -23.19597 | 38814 ft | 513 kts | 50° |
| 2026-04-30 03:22 | 40.04747 | -23.12494 | 38813 ft | 512 kts | 50° |
| 2026-04-30 03:22 | 40.09370 | -23.05452 | 38811 ft | 512 kts | 50° |
| 2026-04-30 03:23 | 40.14004 | -22.98377 | 38810 ft | 511 kts | 50° |
| 2026-04-30 03:23 | 40.18614 | -22.91325 | 38814 ft | 511 kts | 50° |
| 2026-04-30 03:24 | 40.23220 | -22.84259 | 38812 ft | 510 kts | 51° |
| 2026-04-30 03:24 | 40.27804 | -22.77213 | 38813 ft | 510 kts | 51° |
| 2026-04-30 03:25 | 40.32400 | -22.70131 | 38812 ft | 509 kts | 51° |
| 2026-04-30 03:25 | 40.36213 | -22.64245 | 38814 ft | 508 kts | 51° |
| 2026-04-30 03:26 | 40.40775 | -22.57186 | 38816 ft | 507 kts | 51° |
| 2026-04-30 03:26 | 40.45341 | -22.50105 | 38819 ft | 507 kts | 51° |
| 2026-04-30 03:27 | 40.49899 | -22.43021 | 38817 ft | 507 kts | 51° |
| 2026-04-30 03:27 | 40.54440 | -22.35945 | 38823 ft | 507 kts | 52° |
| 2026-04-30 03:28 | 40.58988 | -22.28844 | 38824 ft | 507 kts | 52° |
| 2026-04-30 03:28 | 40.63495 | -22.21788 | 38824 ft | 507 kts | 52° |
| 2026-04-30 03:29 | 40.68043 | -22.14657 | 38826 ft | 506 kts | 52° |
| 2026-04-30 03:29 | 40.72557 | -22.07556 | 38829 ft | 506 kts | 52° |
| 2026-04-30 03:30 | 40.77089 | -22.00414 | 38835 ft | 505 kts | 52° |
| 2026-04-30 03:30 | 40.81592 | -21.93301 | 38851 ft | 505 kts | 52° |
| 2026-04-30 03:31 | 40.86085 | -21.86185 | 38849 ft | 504 kts | 52° |
| 2026-04-30 03:31 | 40.90541 | -21.79112 | 38853 ft | 503 kts | 52° |
| 2026-04-30 03:32 | 40.95011 | -21.72001 | 38848 ft | 501 kts | 52° |
| 2026-04-30 03:32 | 40.99460 | -21.64910 | 38852 ft | 497 kts | 52° |
| 2026-04-30 03:33 | 41.03839 | -21.57908 | 38852 ft | 495 kts | 53° |
| 2026-04-30 03:33 | 41.08250 | -21.50842 | 38856 ft | 493 kts | 53° |
| 2026-04-30 03:34 | 41.12577 | -21.43896 | 38855 ft | 491 kts | 53° |
| 2026-04-30 03:34 | 41.16917 | -21.36910 | 38858 ft | 490 kts | 53° |
| 2026-04-30 03:35 | 41.21242 | -21.29936 | 38863 ft | 488 kts | 53° |
| 2026-04-30 03:35 | 41.25554 | -21.22963 | 38863 ft | 487 kts | 53° |
| 2026-04-30 03:36 | 41.29834 | -21.16030 | 38868 ft | 486 kts | 53° |
| 2026-04-30 03:36 | 41.34138 | -21.09039 | 38872 ft | 486 kts | 53° |
| 2026-04-30 03:37 | 41.38390 | -21.02117 | 38874 ft | 486 kts | 53° |
| 2026-04-30 03:37 | 41.42659 | -20.95150 | 38878 ft | 486 kts | 53° |
| 2026-04-30 03:38 | 41.46938 | -20.88153 | 38885 ft | 486 kts | 53° |
| 2026-04-30 03:38 | 41.51181 | -20.81199 | 38882 ft | 485 kts | 53° |
| 2026-04-30 03:39 | 41.55445 | -20.74194 | 38889 ft | 485 kts | 53° |
| 2026-04-30 03:39 | 41.59701 | -20.67185 | 38891 ft | 485 kts | 53° |
| 2026-04-30 03:40 | 41.63950 | -20.60171 | 38889 ft | 485 kts | 53° |
| 2026-04-30 03:40 | 41.68179 | -20.53176 | 38894 ft | 486 kts | 53° |
| 2026-04-30 03:41 | 41.72427 | -20.46130 | 38897 ft | 487 kts | 53° |
| 2026-04-30 03:41 | 41.76669 | -20.39082 | 38904 ft | 487 kts | 53° |
| 2026-04-30 03:42 | 41.80918 | -20.32002 | 38903 ft | 488 kts | 53° |
| 2026-04-30 03:42 | 41.85152 | -20.24931 | 38908 ft | 489 kts | 53° |
| 2026-04-30 03:43 | 41.89441 | -20.17751 | 38908 ft | 490 kts | 53° |
| 2026-04-30 03:43 | 41.93666 | -20.10662 | 38911 ft | 491 kts | 53° |
| 2026-04-30 03:44 | 41.97939 | -20.03477 | 38915 ft | 492 kts | 53° |
| 2026-04-30 03:44 | 42.02356 | -19.96430 | 38933 ft | 493 kts | 51° |
| 2026-04-30 03:45 | 42.06863 | -19.89450 | 38933 ft | 494 kts | 51° |
| 2026-04-30 03:45 | 42.11416 | -19.82475 | 38942 ft | 495 kts | 51° |
| 2026-04-30 03:46 | 42.15922 | -19.75506 | 38938 ft | 496 kts | 51° |
| 2026-04-30 03:46 | 42.20461 | -19.68495 | 38939 ft | 496 kts | 50° |
| 2026-04-30 03:47 | 42.24995 | -19.61464 | 38933 ft | 496 kts | 51° |
| 2026-04-30 03:47 | 42.29529 | -19.54419 | 38940 ft | 496 kts | 50° |
| 2026-04-30 03:48 | 42.34049 | -19.47380 | 38940 ft | 497 kts | 50° |
| 2026-04-30 03:48 | 42.38591 | -19.40288 | 38944 ft | 497 kts | 50° |
| 2026-04-30 03:49 | 42.43080 | -19.33262 | 38944 ft | 498 kts | 50° |
| 2026-04-30 03:49 | 42.47619 | -19.26142 | 38944 ft | 498 kts | 50° |
| 2026-04-30 03:50 | 42.52146 | -19.19022 | 38951 ft | 499 kts | 50° |
| 2026-04-30 03:50 | 42.56649 | -19.11925 | 38951 ft | 499 kts | 50° |
| 2026-04-30 03:51 | 42.61168 | -19.04784 | 38959 ft | 499 kts | 50° |
| 2026-04-30 03:51 | 42.65688 | -18.97622 | 38961 ft | 499 kts | 50° |
| 2026-04-30 03:52 | 42.70215 | -18.90433 | 38959 ft | 500 kts | 50° |
| 2026-04-30 03:52 | 42.74735 | -18.83239 | 38957 ft | 500 kts | 50° |
| 2026-04-30 03:53 | 42.79250 | -18.76034 | 38961 ft | 500 kts | 50° |
| 2026-04-30 03:53 | 42.83746 | -18.68841 | 38963 ft | 500 kts | 50° |
| 2026-04-30 03:54 | 42.88248 | -18.61622 | 38960 ft | 500 kts | 50° |
| 2026-04-30 03:54 | 42.92749 | -18.54386 | 38970 ft | 499 kts | 50° |
| 2026-04-30 03:55 | 42.97221 | -18.47179 | 38968 ft | 500 kts | 50° |
| 2026-04-30 03:55 | 43.01714 | -18.39920 | 38972 ft | 501 kts | 50° |
| 2026-04-30 03:56 | 43.06221 | -18.32621 | 38971 ft | 502 kts | 50° |
| 2026-04-30 03:56 | 43.10730 | -18.25299 | 38973 ft | 502 kts | 50° |
| 2026-04-30 03:57 | 43.15223 | -18.17987 | 38974 ft | 503 kts | 50° |
| 2026-04-30 03:57 | 43.19702 | -18.10676 | 38975 ft | 504 kts | 50° |
| 2026-04-30 03:58 | 43.24206 | -18.03309 | 38979 ft | 504 kts | 50° |
| 2026-04-30 03:58 | 43.28713 | -17.95917 | 38984 ft | 505 kts | 50° |
| 2026-04-30 03:59 | 43.33224 | -17.88499 | 38984 ft | 505 kts | 50° |
| 2026-04-30 03:59 | 43.37738 | -17.81058 | 38983 ft | 506 kts | 50° |
| 2026-04-30 04:00 | 43.42210 | -17.73669 | 38988 ft | 506 kts | 50° |
| 2026-04-30 04:00 | 43.46620 | -17.66358 | 38996 ft | 481 kts | 49° |
| 2026-04-30 04:01 | 43.48721 | -17.62871 | 38992 ft | 469 kts | 49° |
| 2026-04-30 04:01 | 43.50804 | -17.59411 | 38991 ft | 467 kts | 49° |
| 2026-04-30 04:01 | 43.54970 | -17.52479 | 38992 ft | 473 kts | 49° |
| 2026-04-30 04:02 | 43.59156 | -17.45489 | 39003 ft | 475 kts | 49° |
| 2026-04-30 04:02 | 43.63398 | -17.38393 | 39001 ft | 475 kts | 49° |
| 2026-04-30 04:03 | 43.67568 | -17.31401 | 39011 ft | 475 kts | 49° |
| 2026-04-30 04:03 | 43.71769 | -17.24339 | 39009 ft | 475 kts | 49° |
| 2026-04-30 04:04 | 43.75967 | -17.17266 | 39005 ft | 475 kts | 49° |
| 2026-04-30 04:04 | 43.80151 | -17.10196 | 39012 ft | 474 kts | 50° |
| 2026-04-30 04:05 | 43.84313 | -17.03150 | 39015 ft | 474 kts | 50° |
| 2026-04-30 04:05 | 43.88481 | -16.96071 | 39018 ft | 473 kts | 50° |
| 2026-04-30 04:06 | 43.92638 | -16.88999 | 39020 ft | 472 kts | 50° |
| 2026-04-30 04:06 | 43.96766 | -16.81954 | 39016 ft | 472 kts | 50° |
| 2026-04-30 04:07 | 44.00910 | -16.74871 | 39016 ft | 471 kts | 50° |
| 2026-04-30 04:08 | 44.07118 | -16.64223 | 38989 ft | 479 kts | 50° |
| 2026-04-30 04:08 | 44.11350 | -16.56942 | 39000 ft | 489 kts | 50° |
| 2026-04-30 04:09 | 44.15640 | -16.49540 | 39009 ft | 499 kts | 50° |
| 2026-04-30 04:09 | 44.20022 | -16.41962 | 39008 ft | 504 kts | 50° |
| 2026-04-30 04:10 | 44.24416 | -16.34341 | 39008 ft | 504 kts | 50° |
| 2026-04-30 04:10 | 44.28823 | -16.26680 | 39011 ft | 504 kts | 50° |
| 2026-04-30 04:11 | 44.33185 | -16.19075 | 39014 ft | 503 kts | 50° |
| 2026-04-30 04:11 | 44.36838 | -16.12690 | 39016 ft | 503 kts | 50° |
| 2026-04-30 04:12 | 44.41912 | -16.03800 | 39012 ft | 503 kts | 50° |
| 2026-04-30 04:12 | 44.46267 | -15.96148 | 39014 ft | 502 kts | 50° |
| 2026-04-30 04:13 | 44.49878 | -15.89787 | 39012 ft | 501 kts | 50° |
| 2026-04-30 04:13 | 44.54214 | -15.82129 | 39014 ft | 500 kts | 50° |
| 2026-04-30 04:14 | 44.58529 | -15.74490 | 39016 ft | 500 kts | 50° |
| 2026-04-30 04:14 | 44.62847 | -15.66823 | 39011 ft | 500 kts | 50° |
| 2026-04-30 04:15 | 44.67158 | -15.59151 | 39014 ft | 500 kts | 50° |
| 2026-04-30 04:15 | 44.71470 | -15.51454 | 39015 ft | 500 kts | 50° |
| 2026-04-30 04:16 | 44.75739 | -15.43814 | 39015 ft | 499 kts | 50° |
| 2026-04-30 04:16 | 44.80043 | -15.36091 | 39008 ft | 499 kts | 50° |
| 2026-04-30 04:17 | 44.84294 | -15.28442 | 39009 ft | 498 kts | 50° |
| 2026-04-30 04:17 | 44.88565 | -15.20738 | 39010 ft | 498 kts | 50° |
| 2026-04-30 04:18 | 44.92827 | -15.13026 | 39008 ft | 499 kts | 50° |
| 2026-04-30 04:18 | 44.97088 | -15.05299 | 39005 ft | 499 kts | 51° |
| 2026-04-30 04:19 | 45.01737 | -14.98087 | 39023 ft | 494 kts | 37° |
| 2026-04-30 04:19 | 45.07132 | -14.92130 | 39003 ft | 494 kts | 36° |
| 2026-04-30 04:20 | 45.12555 | -14.86131 | 39006 ft | 494 kts | 36° |
| 2026-04-30 04:20 | 45.17958 | -14.80132 | 38999 ft | 494 kts | 36° |
| 2026-04-30 04:21 | 45.23374 | -14.74112 | 39001 ft | 493 kts | 36° |
| 2026-04-30 04:21 | 45.28769 | -14.68093 | 39000 ft | 493 kts | 36° |
| 2026-04-30 04:22 | 45.34154 | -14.62075 | 38996 ft | 492 kts | 36° |
| 2026-04-30 04:22 | 45.39537 | -14.56042 | 38994 ft | 493 kts | 36° |
| 2026-04-30 04:23 | 45.44889 | -14.50030 | 38990 ft | 492 kts | 36° |
| 2026-04-30 04:23 | 45.50279 | -14.43961 | 38991 ft | 492 kts | 37° |
| 2026-04-30 04:24 | 45.55637 | -14.37910 | 38988 ft | 492 kts | 37° |
| 2026-04-30 04:24 | 45.61007 | -14.31832 | 38983 ft | 491 kts | 37° |
| 2026-04-30 04:25 | 45.66362 | -14.25755 | 38981 ft | 491 kts | 37° |
| 2026-04-30 04:25 | 45.71687 | -14.19698 | 38981 ft | 491 kts | 37° |
| 2026-04-30 04:26 | 45.77036 | -14.13599 | 38978 ft | 491 kts | 37° |
| 2026-04-30 04:26 | 45.82360 | -14.07508 | 38978 ft | 490 kts | 37° |
| 2026-04-30 04:27 | 45.87724 | -14.01363 | 38976 ft | 490 kts | 37° |
| 2026-04-30 04:27 | 45.93009 | -13.95287 | 38975 ft | 489 kts | 37° |
| 2026-04-30 04:28 | 45.98315 | -13.89173 | 38969 ft | 489 kts | 37° |
| 2026-04-30 04:28 | 46.03625 | -13.83047 | 38967 ft | 488 kts | 37° |
| 2026-04-30 04:29 | 46.08929 | -13.76901 | 38960 ft | 488 kts | 37° |
| 2026-04-30 04:29 | 46.14169 | -13.70821 | 38967 ft | 487 kts | 37° |
| 2026-04-30 04:30 | 46.19503 | -13.64612 | 38952 ft | 498 kts | 37° |
| 2026-04-30 04:30 | 46.24968 | -13.58235 | 38955 ft | 508 kts | 38° |
| 2026-04-30 04:31 | 46.30450 | -13.51821 | 38955 ft | 511 kts | 38° |
| 2026-04-30 04:31 | 46.36016 | -13.45292 | 38953 ft | 511 kts | 38° |
| 2026-04-30 04:32 | 46.41497 | -13.38846 | 38952 ft | 511 kts | 38° |
| 2026-04-30 04:32 | 46.47021 | -13.32331 | 38948 ft | 511 kts | 38° |
| 2026-04-30 04:33 | 46.52523 | -13.25825 | 38944 ft | 511 kts | 38° |
| 2026-04-30 04:33 | 46.57996 | -13.19334 | 38941 ft | 510 kts | 38° |
| 2026-04-30 04:34 | 46.63497 | -13.12795 | 38943 ft | 510 kts | 39° |
| 2026-04-30 04:34 | 46.68985 | -13.06252 | 38938 ft | 509 kts | 39° |
| 2026-04-30 04:35 | 46.74451 | -12.99717 | 38934 ft | 509 kts | 39° |
| 2026-04-30 04:35 | 46.79906 | -12.93179 | 38938 ft | 509 kts | 39° |
| 2026-04-30 04:36 | 46.85380 | -12.86600 | 38934 ft | 509 kts | 39° |
| 2026-04-30 04:36 | 46.90833 | -12.80029 | 38933 ft | 509 kts | 39° |
| 2026-04-30 04:37 | 46.96298 | -12.73424 | 38932 ft | 510 kts | 39° |
| 2026-04-30 04:37 | 47.01777 | -12.66785 | 38927 ft | 510 kts | 40° |
| 2026-04-30 04:38 | 47.07240 | -12.60146 | 38931 ft | 510 kts | 40° |
| 2026-04-30 04:38 | 47.12677 | -12.53522 | 38931 ft | 510 kts | 40° |
| 2026-04-30 04:39 | 47.18132 | -12.46857 | 38927 ft | 510 kts | 40° |
| 2026-04-30 04:39 | 47.23588 | -12.40172 | 38929 ft | 510 kts | 40° |
| 2026-04-30 04:40 | 47.29046 | -12.33466 | 38928 ft | 510 kts | 40° |
| 2026-04-30 04:40 | 47.34487 | -12.26762 | 38929 ft | 511 kts | 40° |
| 2026-04-30 04:41 | 47.39946 | -12.20019 | 38929 ft | 511 kts | 40° |
| 2026-04-30 04:41 | 47.45405 | -12.13255 | 38926 ft | 512 kts | 41° |
| 2026-04-30 04:42 | 47.50865 | -12.06471 | 38925 ft | 512 kts | 41° |
| 2026-04-30 04:42 | 47.56282 | -11.99722 | 38927 ft | 512 kts | 41° |
| 2026-04-30 04:43 | 47.61753 | -11.92886 | 38927 ft | 513 kts | 41° |
| 2026-04-30 04:43 | 47.67198 | -11.86064 | 38926 ft | 513 kts | 41° |
| 2026-04-30 04:44 | 47.72669 | -11.79190 | 38924 ft | 514 kts | 41° |
| 2026-04-30 04:44 | 47.78093 | -11.72355 | 38924 ft | 514 kts | 41° |
| 2026-04-30 04:45 | 47.83572 | -11.65431 | 38925 ft | 514 kts | 41° |
| 2026-04-30 04:45 | 47.88979 | -11.58579 | 38925 ft | 513 kts | 41° |
| 2026-04-30 04:46 | 47.94420 | -11.51664 | 38922 ft | 512 kts | 42° |
| 2026-04-30 04:46 | 47.99845 | -11.44749 | 38920 ft | 512 kts | 42° |
| 2026-04-30 04:47 | 48.05264 | -11.37822 | 38920 ft | 513 kts | 42° |
| 2026-04-30 04:47 | 48.10684 | -11.30874 | 38923 ft | 515 kts | 42° |
| 2026-04-30 04:48 | 48.16121 | -11.23885 | 38921 ft | 515 kts | 42° |
| 2026-04-30 04:48 | 48.21563 | -11.16868 | 38920 ft | 514 kts | 42° |
| 2026-04-30 04:49 | 48.26956 | -11.09894 | 38921 ft | 514 kts | 43° |
| 2026-04-30 04:49 | 48.32381 | -11.02858 | 38921 ft | 514 kts | 43° |
| 2026-04-30 04:50 | 48.37775 | -10.95843 | 38916 ft | 513 kts | 43° |
| 2026-04-30 04:50 | 48.43180 | -10.88792 | 38913 ft | 512 kts | 43° |
| 2026-04-30 04:51 | 48.48529 | -10.81795 | 38917 ft | 512 kts | 43° |
| 2026-04-30 04:51 | 48.53906 | -10.74739 | 38919 ft | 511 kts | 43° |
| 2026-04-30 04:52 | 48.59254 | -10.67702 | 38918 ft | 510 kts | 43° |
| 2026-04-30 04:52 | 48.64600 | -10.60646 | 38922 ft | 509 kts | 44° |
| 2026-04-30 04:53 | 48.69937 | -10.53583 | 38918 ft | 509 kts | 44° |
| 2026-04-30 04:53 | 48.74886 | -10.46038 | 38921 ft | 505 kts | 53° |
| 2026-04-30 04:54 | 48.79411 | -10.37780 | 38932 ft | 506 kts | 53° |
| 2026-04-30 04:54 | 48.83892 | -10.29616 | 38936 ft | 506 kts | 53° |
| 2026-04-30 04:55 | 48.88395 | -10.21371 | 38934 ft | 506 kts | 53° |
| 2026-04-30 04:55 | 48.92859 | -10.13166 | 38939 ft | 507 kts | 53° |
| 2026-04-30 04:56 | 48.97351 | -10.04901 | 38934 ft | 507 kts | 54° |
| 2026-04-30 04:56 | 49.01759 | -9.96538 | 38925 ft | 506 kts | 55° |
| 2026-04-30 04:57 | 49.06163 | -9.88149 | 38931 ft | 506 kts | 55° |
| 2026-04-30 04:57 | 49.10483 | -9.79710 | 38944 ft | 505 kts | 56° |
| 2026-04-30 04:58 | 49.14113 | -9.72676 | 38939 ft | 506 kts | 55° |
| 2026-04-30 04:58 | 49.19154 | -9.62842 | 38933 ft | 504 kts | 56° |
| 2026-04-30 04:59 | 49.22759 | -9.55791 | 38929 ft | 503 kts | 56° |
| 2026-04-30 04:59 | 49.27057 | -9.47364 | 38932 ft | 503 kts | 56° |
| 2026-04-30 05:00 | 49.31352 | -9.38906 | 38929 ft | 503 kts | 56° |
| 2026-04-30 05:00 | 49.35643 | -9.30436 | 38936 ft | 502 kts | 56° |
| 2026-04-30 05:01 | 49.39933 | -9.21936 | 38934 ft | 502 kts | 56° |
| 2026-04-30 05:01 | 49.44199 | -9.13461 | 38938 ft | 503 kts | 56° |
| 2026-04-30 05:02 | 49.48472 | -9.04943 | 38937 ft | 503 kts | 56° |
| 2026-04-30 05:02 | 49.52700 | -8.96476 | 38970 ft | 490 kts | 53° |
| 2026-04-30 05:02 | 49.54741 | -8.92390 | 38958 ft | 474 kts | 53° |
| 2026-04-30 05:03 | 49.56718 | -8.88431 | 38951 ft | 460 kts | 53° |
| 2026-04-30 05:03 | 49.60563 | -8.80685 | 38945 ft | 456 kts | 53° |
| 2026-04-30 05:04 | 49.64475 | -8.72796 | 38953 ft | 465 kts | 53° |
| 2026-04-30 05:04 | 49.68394 | -8.64862 | 38952 ft | 467 kts | 53° |
| 2026-04-30 05:05 | 49.72324 | -8.56882 | 38960 ft | 467 kts | 53° |
| 2026-04-30 05:05 | 49.76243 | -8.48904 | 38958 ft | 466 kts | 53° |
| 2026-04-30 05:06 | 49.82091 | -8.36951 | 38959 ft | 465 kts | 53° |
| 2026-04-30 05:06 | 49.85994 | -8.28942 | 38958 ft | 465 kts | 54° |
| 2026-04-30 05:07 | 49.89907 | -8.20890 | 38962 ft | 465 kts | 54° |
| 2026-04-30 05:07 | 49.93785 | -8.12885 | 38962 ft | 466 kts | 54° |
| 2026-04-30 05:08 | 49.97670 | -8.04841 | 38964 ft | 465 kts | 54° |
| 2026-04-30 05:08 | 50.00960 | -7.96241 | 38978 ft | 464 kts | 68° |
| 2026-04-30 05:09 | 50.03361 | -7.86894 | 38974 ft | 465 kts | 68° |
| 2026-04-30 05:09 | 50.05733 | -7.77566 | 38974 ft | 466 kts | 69° |
| 2026-04-30 05:10 | 50.08117 | -7.68178 | 38977 ft | 466 kts | 69° |
| 2026-04-30 05:10 | 50.10498 | -7.58753 | 38976 ft | 466 kts | 69° |
| 2026-04-30 05:11 | 50.12864 | -7.49347 | 38974 ft | 466 kts | 69° |
| 2026-04-30 05:11 | 50.15223 | -7.39935 | 38976 ft | 467 kts | 69° |
| 2026-04-30 05:12 | 50.17567 | -7.30538 | 38979 ft | 467 kts | 69° |
| 2026-04-30 05:12 | 50.19913 | -7.21097 | 38979 ft | 466 kts | 69° |
| 2026-04-30 05:13 | 50.22249 | -7.11651 | 38977 ft | 466 kts | 69° |
| 2026-04-30 05:13 | 50.24578 | -7.02199 | 38978 ft | 466 kts | 69° |
| 2026-04-30 05:14 | 50.26888 | -6.92782 | 38977 ft | 466 kts | 69° |
| 2026-04-30 05:14 | 50.29201 | -6.83309 | 38984 ft | 466 kts | 70° |
| 2026-04-30 05:15 | 50.31504 | -6.73840 | 38991 ft | 466 kts | 70° |
| 2026-04-30 05:15 | 50.33802 | -6.64351 | 38997 ft | 466 kts | 70° |
| 2026-04-30 05:16 | 50.36078 | -6.54911 | 38998 ft | 466 kts | 70° |
| 2026-04-30 05:16 | 50.38360 | -6.45402 | 38997 ft | 466 kts | 70° |
| 2026-04-30 05:17 | 50.40642 | -6.35858 | 38998 ft | 467 kts | 70° |
| 2026-04-30 05:17 | 50.42913 | -6.26314 | 39003 ft | 467 kts | 70° |
| 2026-04-30 05:18 | 50.45175 | -6.16768 | 39008 ft | 467 kts | 70° |
| 2026-04-30 05:18 | 50.47427 | -6.07219 | 39012 ft | 467 kts | 71° |
| 2026-04-30 05:19 | 50.49678 | -5.97634 | 39012 ft | 468 kts | 71° |
| 2026-04-30 05:19 | 50.51921 | -5.88039 | 39014 ft | 468 kts | 71° |
| 2026-04-30 05:20 | 50.54149 | -5.78465 | 39019 ft | 469 kts | 71° |
| 2026-04-30 05:20 | 50.56379 | -5.68840 | 39024 ft | 469 kts | 71° |
| 2026-04-30 05:21 | 50.58611 | -5.59164 | 39022 ft | 469 kts | 72° |
| 2026-04-30 05:21 | 50.60827 | -5.49513 | 39029 ft | 470 kts | 72° |
| 2026-04-30 05:22 | 50.63035 | -5.39852 | 39033 ft | 471 kts | 72° |
| 2026-04-30 05:22 | 50.65254 | -5.30098 | 39039 ft | 471 kts | 72° |
| 2026-04-30 05:23 | 50.67466 | -5.20334 | 39040 ft | 472 kts | 72° |
| 2026-04-30 05:23 | 50.69651 | -5.10639 | 39044 ft | 472 kts | 72° |
| 2026-04-30 05:24 | 50.71848 | -5.00850 | 39052 ft | 472 kts | 72° |
| 2026-04-30 05:24 | 50.74022 | -4.91116 | 39051 ft | 473 kts | 73° |
| 2026-04-30 05:25 | 50.76210 | -4.81273 | 39058 ft | 473 kts | 73° |
| 2026-04-30 05:25 | 50.78371 | -4.71508 | 39071 ft | 473 kts | 73° |
| 2026-04-30 05:26 | 50.80531 | -4.61707 | 39076 ft | 473 kts | 75° |
| 2026-04-30 05:26 | 50.82700 | -4.51793 | 39085 ft | 478 kts | 75° |
| 2026-04-30 05:27 | 50.84874 | -4.41842 | 39090 ft | 478 kts | 75° |
| 2026-04-30 05:27 | 50.87035 | -4.31876 | 39106 ft | 478 kts | 75° |
| 2026-04-30 05:28 | 50.89185 | -4.21928 | 39113 ft | 479 kts | 75° |
| 2026-04-30 05:28 | 50.91317 | -4.12009 | 39118 ft | 478 kts | 75° |
| 2026-04-30 05:29 | 50.93457 | -4.02007 | 39122 ft | 477 kts | 75° |
| 2026-04-30 05:29 | 50.95577 | -3.92045 | 39121 ft | 476 kts | 75° |
| 2026-04-30 05:30 | 50.97688 | -3.82082 | 39129 ft | 475 kts | 75° |
| 2026-04-30 05:30 | 50.99767 | -3.72214 | 39134 ft | 474 kts | 75° |
| 2026-04-30 05:31 | 51.01849 | -3.62291 | 39135 ft | 473 kts | 75° |
| 2026-04-30 05:31 | 51.03923 | -3.52353 | 39140 ft | 474 kts | 75° |
| 2026-04-30 05:32 | 51.05989 | -3.42409 | 39147 ft | 474 kts | 75° |
| 2026-04-30 05:32 | 51.08048 | -3.32442 | 39157 ft | 474 kts | 75° |
| 2026-04-30 05:33 | 51.10099 | -3.22469 | 39161 ft | 474 kts | 75° |
| 2026-04-30 05:33 | 51.12137 | -3.12504 | 39165 ft | 474 kts | 75° |
| 2026-04-30 05:34 | 51.14140 | -3.02666 | 39162 ft | 475 kts | 75° |
| 2026-04-30 05:34 | 51.16171 | -2.92637 | 39164 ft | 476 kts | 75° |
| 2026-04-30 05:35 | 51.18192 | -2.82611 | 39160 ft | 476 kts | 75° |
| 2026-04-30 05:35 | 51.20212 | -2.72532 | 39177 ft | 476 kts | 75° |
| 2026-04-30 05:36 | 51.22219 | -2.62471 | 39182 ft | 477 kts | 75° |
| 2026-04-30 05:36 | 51.24230 | -2.52336 | 39179 ft | 477 kts | 75° |
| 2026-04-30 05:37 | 51.26207 | -2.42316 | 39183 ft | 477 kts | 75° |
| 2026-04-30 05:37 | 51.28194 | -2.32202 | 39191 ft | 478 kts | 75° |
| 2026-04-30 05:38 | 51.30166 | -2.22099 | 39197 ft | 477 kts | 75° |
| 2026-04-30 05:38 | 51.32148 | -2.11904 | 39192 ft | 478 kts | 75° |
| 2026-04-30 05:39 | 51.34098 | -2.01813 | 39192 ft | 477 kts | 75° |
| 2026-04-30 05:39 | 51.36285 | -1.91786 | 39207 ft | 478 kts | 73° |
| 2026-04-30 05:40 | 51.38488 | -1.81742 | 39209 ft | 477 kts | 73° |
| 2026-04-30 05:40 | 51.40706 | -1.71725 | 39211 ft | 476 kts | 73° |
| 2026-04-30 05:41 | 51.42892 | -1.61717 | 39224 ft | 475 kts | 73° |
| 2026-04-30 05:41 | 51.45066 | -1.51769 | 39222 ft | 475 kts | 73° |
| 2026-04-30 05:42 | 51.47239 | -1.41745 | 39225 ft | 475 kts | 73° |
| 2026-04-30 05:42 | 51.49050 | -1.33370 | 39227 ft | 475 kts | 73° |
| 2026-04-30 05:43 | 51.51171 | -1.23505 | 39231 ft | 475 kts | 73° |
| 2026-04-30 05:43 | 51.53388 | -1.12179 | 39241 ft | 473 kts | 78° |
| 2026-04-30 05:44 | 51.55023 | -1.01954 | 39244 ft | 473 kts | 78° |
| 2026-04-30 05:44 | 51.56408 | -0.93353 | 39240 ft | 473 kts | 78° |
| 2026-04-30 05:45 | 51.58022 | -0.83212 | 39239 ft | 471 kts | 78° |
| 2026-04-30 05:45 | 51.59643 | -0.72980 | 39256 ft | 471 kts | 78° |
| 2026-04-30 05:46 | 51.61247 | -0.62786 | 39254 ft | 470 kts | 78° |
| 2026-04-30 05:46 | 51.62844 | -0.52580 | 39258 ft | 470 kts | 78° |
| 2026-04-30 05:47 | 51.64431 | -0.42373 | 39259 ft | 470 kts | 78° |
| 2026-04-30 05:47 | 51.66002 | -0.32200 | 39342 ft | 471 kts | 78° |
| 2026-04-30 05:48 | 51.67590 | -0.21961 | 39338 ft | 471 kts | 75° |
| 2026-04-30 05:48 | 51.69282 | -0.11814 | 39350 ft | 471 kts | 78° |
| 2026-04-30 05:49 | 51.70910 | -0.01562 | 39330 ft | 472 kts | 77° |
| 2026-04-30 05:49 | 51.72499 | 0.08685 | 39285 ft | 472 kts | 78° |
| 2026-04-30 05:50 | 51.74081 | 0.18923 | 39294 ft | 472 kts | 77° |
| 2026-04-30 05:50 | 51.75660 | 0.29172 | 39289 ft | 472 kts | 78° |
| 2026-04-30 05:51 | 51.77226 | 0.39451 | 39287 ft | 471 kts | 78° |
| 2026-04-30 05:51 | 51.77995 | 0.44490 | 39287 ft | 472 kts | 78° |
| 2026-04-30 05:52 | 51.79553 | 0.54806 | 39286 ft | 472 kts | 78° |
| 2026-04-30 05:52 | 51.81105 | 0.65127 | 39274 ft | 473 kts | 78° |
| 2026-04-30 05:53 | 51.82687 | 0.75387 | 39297 ft | 473 kts | 77° |
| 2026-04-30 05:53 | 51.84411 | 0.85677 | 39290 ft | 474 kts | 75° |
| 2026-04-30 05:54 | 51.86260 | 0.95955 | 39314 ft | 474 kts | 76° |
| 2026-04-30 05:54 | 51.88124 | 1.06159 | 39311 ft | 473 kts | 76° |
| 2026-04-30 05:55 | 51.89958 | 1.16377 | 39314 ft | 473 kts | 76° |
| 2026-04-30 05:55 | 51.91785 | 1.26551 | 39317 ft | 472 kts | 76° |
| 2026-04-30 05:56 | 51.93607 | 1.36776 | 39323 ft | 471 kts | 76° |
| 2026-04-30 05:56 | 51.95417 | 1.46976 | 39329 ft | 470 kts | 76° |
| 2026-04-30 05:57 | 51.97207 | 1.57146 | 39335 ft | 469 kts | 76° |
| 2026-04-30 05:57 | 51.98990 | 1.67308 | 38998 ft | 466 kts | 76° |
| 2026-04-30 05:58 | 51.99791 | 1.72398 | 38175 ft | 463 kts | 78° |
| 2026-04-30 05:58 | 52.00583 | 1.77462 | 37054 ft | 466 kts | 77° |
| 2026-04-30 05:58 | 52.01381 | 1.82505 | 36015 ft | 466 kts | 78° |
| 2026-04-30 05:58 | 52.02169 | 1.87571 | 34984 ft | 466 kts | 78° |
| 2026-04-30 05:59 | 52.02961 | 1.92750 | 34072 ft | 463 kts | 78° |
| 2026-04-30 05:59 | 52.03732 | 1.97762 | 33201 ft | 458 kts | 78° |
| 2026-04-30 05:59 | 52.04513 | 2.02817 | 32297 ft | 454 kts | 78° |
| 2026-04-30 05:59 | 52.05267 | 2.07733 | 31408 ft | 455 kts | 78° |
| 2026-04-30 06:00 | 52.06029 | 2.12741 | 30476 ft | 459 kts | 78° |
| 2026-04-30 06:00 | 52.06793 | 2.17765 | 29489 ft | 458 kts | 78° |
| 2026-04-30 06:00 | 52.07560 | 2.22806 | 28509 ft | 456 kts | 78° |
| 2026-04-30 06:00 | 52.08319 | 2.27819 | 27524 ft | 454 kts | 78° |
| 2026-04-30 06:01 | 52.09068 | 2.32794 | 26554 ft | 454 kts | 77° |
| 2026-04-30 06:01 | 52.09821 | 2.37804 | 25576 ft | 455 kts | 77° |
| 2026-04-30 06:01 | 52.10564 | 2.42760 | 24591 ft | 457 kts | 77° |
| 2026-04-30 06:01 | 52.11440 | 2.47789 | 23659 ft | 457 kts | 70° |
| 2026-04-30 06:02 | 52.12787 | 2.52365 | 23343 ft | 444 kts | 62° |
| 2026-04-30 06:02 | 52.14300 | 2.56606 | 23266 ft | 427 kts | 61° |
| 2026-04-30 06:02 | 52.15785 | 2.60728 | 23269 ft | 419 kts | 61° |
| 2026-04-30 06:02 | 52.17274 | 2.64812 | 23260 ft | 415 kts | 61° |
| 2026-04-30 06:03 | 52.18734 | 2.68836 | 23248 ft | 411 kts | 61° |
| 2026-04-30 06:03 | 52.20171 | 2.72834 | 23243 ft | 407 kts | 61° |
| 2026-04-30 06:03 | 52.21583 | 2.76757 | 23232 ft | 403 kts | 61° |
| 2026-04-30 06:03 | 52.22997 | 2.80683 | 23227 ft | 399 kts | 61° |
| 2026-04-30 06:04 | 52.24395 | 2.84582 | 23218 ft | 396 kts | 61° |
| 2026-04-30 06:04 | 52.25777 | 2.88442 | 23211 ft | 394 kts | 61° |
| 2026-04-30 06:04 | 52.27161 | 2.92306 | 23212 ft | 393 kts | 61° |
| 2026-04-30 06:05 | 52.29898 | 2.99974 | 23201 ft | 390 kts | 61° |
| 2026-04-30 06:05 | 52.31287 | 3.03881 | 23213 ft | 405 kts | 61° |
| 2026-04-30 06:05 | 52.32725 | 3.07917 | 23245 ft | 413 kts | 61° |
| 2026-04-30 06:05 | 52.34121 | 3.11835 | 23005 ft | 384 kts | 61° |
| 2026-04-30 06:06 | 52.35407 | 3.15453 | 22641 ft | 348 kts | 62° |
| 2026-04-30 06:06 | 52.36560 | 3.18716 | 22302 ft | 315 kts | 62° |
| 2026-04-30 06:06 | 52.37614 | 3.21700 | 21966 ft | 289 kts | 62° |
| 2026-04-30 06:06 | 52.38570 | 3.24407 | 21644 ft | 272 kts | 62° |
| 2026-04-30 06:07 | 52.39509 | 3.27073 | 21323 ft | 270 kts | 62° |
| 2026-04-30 06:07 | 52.40450 | 3.29747 | 21015 ft | 275 kts | 62° |
| 2026-04-30 06:07 | 52.41411 | 3.32479 | 20669 ft | 278 kts | 62° |
| 2026-04-30 06:07 | 52.42381 | 3.35232 | 20328 ft | 277 kts | 62° |
| 2026-04-30 06:08 | 52.43339 | 3.37958 | 19982 ft | 274 kts | 62° |
| 2026-04-30 06:08 | 52.44285 | 3.40653 | 19646 ft | 272 kts | 63° |
| 2026-04-30 06:08 | 52.44996 | 3.43479 | 19330 ft | 266 kts | 78° |
| 2026-04-30 06:08 | 52.45412 | 3.46427 | 18990 ft | 266 kts | 78° |
| 2026-04-30 06:09 | 52.45843 | 3.49386 | 18647 ft | 265 kts | 78° |
| 2026-04-30 06:09 | 52.46265 | 3.52304 | 18280 ft | 261 kts | 78° |
| 2026-04-30 06:09 | 52.46675 | 3.55169 | 17957 ft | 258 kts | 78° |
| 2026-04-30 06:09 | 52.47080 | 3.58008 | 17643 ft | 257 kts | 78° |
| 2026-04-30 06:10 | 52.47491 | 3.60879 | 17309 ft | 256 kts | 78° |
| 2026-04-30 06:10 | 52.47892 | 3.63691 | 17001 ft | 255 kts | 78° |
| 2026-04-30 06:10 | 52.48299 | 3.66543 | 16677 ft | 254 kts | 78° |
| 2026-04-30 06:10 | 52.48694 | 3.69327 | 16371 ft | 252 kts | 78° |
| 2026-04-30 06:11 | 52.49101 | 3.72197 | 15710 ft | 261 kts | 78° |
| 2026-04-30 06:11 | 52.49507 | 3.75063 | 15299 ft | 257 kts | 78° |
| 2026-04-30 06:11 | 52.49908 | 3.77887 | 14974 ft | 251 kts | 78° |
| 2026-04-30 06:11 | 52.50295 | 3.80635 | 14676 ft | 245 kts | 78° |
| 2026-04-30 06:12 | 52.50676 | 3.83343 | 14380 ft | 240 kts | 78° |
| 2026-04-30 06:12 | 52.51050 | 3.86003 | 14072 ft | 240 kts | 78° |
| 2026-04-30 06:12 | 52.51423 | 3.88665 | 13769 ft | 239 kts | 78° |
| 2026-04-30 06:12 | 52.51799 | 3.91340 | 13473 ft | 240 kts | 79° |
| 2026-04-30 06:13 | 52.52168 | 3.93980 | 13159 ft | 240 kts | 79° |
| 2026-04-30 06:13 | 52.52354 | 3.96681 | 12873 ft | 237 kts | 97° |
| 2026-04-30 06:13 | 52.51933 | 3.99310 | 12598 ft | 238 kts | 110° |
| 2026-04-30 06:13 | 52.51316 | 4.01831 | 12301 ft | 242 kts | 110° |
| 2026-04-30 06:14 | 52.50687 | 4.04399 | 11977 ft | 244 kts | 111° |
| 2026-04-30 06:14 | 52.50052 | 4.07004 | 11665 ft | 247 kts | 110° |
| 2026-04-30 06:14 | 52.49409 | 4.09645 | 11335 ft | 250 kts | 111° |
| 2026-04-30 06:14 | 52.48762 | 4.12293 | 11027 ft | 251 kts | 111° |
| 2026-04-30 06:15 | 52.48109 | 4.14961 | 10706 ft | 253 kts | 111° |
| 2026-04-30 06:15 | 52.47443 | 4.17677 | 10369 ft | 256 kts | 111° |
| 2026-04-30 06:15 | 52.46786 | 4.20356 | 10020 ft | 248 kts | 111° |
| 2026-04-30 06:15 | 52.46153 | 4.22938 | 9722 ft | 246 kts | 111° |
| 2026-04-30 06:16 | 52.45499 | 4.25597 | 9392 ft | 249 kts | 111° |
| 2026-04-30 06:16 | 52.44997 | 4.27636 | 9178 ft | 242 kts | 111° |
| 2026-04-30 06:16 | 52.44354 | 4.30244 | 8861 ft | 233 kts | 111° |
| 2026-04-30 06:16 | 52.43762 | 4.32644 | 8584 ft | 226 kts | 111° |
| 2026-04-30 06:17 | 52.43168 | 4.34997 | 8311 ft | 220 kts | 116° |
| 2026-04-30 06:17 | 52.42244 | 4.36932 | 8070 ft | 217 kts | 137° |
| 2026-04-30 06:17 | 52.40923 | 4.38151 | 7805 ft | 223 kts | 158° |
| 2026-04-30 06:17 | 52.39351 | 4.38431 | 7549 ft | 229 kts | 178° |
| 2026-04-30 06:18 | 52.37818 | 4.38225 | 7256 ft | 213 kts | 178° |
| 2026-04-30 06:18 | 52.36383 | 4.38038 | 6992 ft | 204 kts | 178° |
| 2026-04-30 06:18 | 52.34959 | 4.37863 | 6736 ft | 206 kts | 178° |
| 2026-04-30 06:18 | 52.33540 | 4.37684 | 6490 ft | 199 kts | 178° |
| 2026-04-30 06:19 | 52.32214 | 4.37507 | 6245 ft | 183 kts | 177° |
| 2026-04-30 06:19 | 52.30987 | 4.37350 | 6030 ft | 170 kts | 176° |
| 2026-04-30 06:19 | 52.29844 | 4.37208 | 5808 ft | 161 kts | 176° |
| 2026-04-30 06:19 | 52.29483 | 4.37163 | 5759 ft | 160 kts | 176° |
| 2026-04-30 06:20 | 52.28724 | 4.37072 | 5631 ft | 163 kts | 175° |
| 2026-04-30 06:20 | 52.27598 | 4.36932 | 5430 ft | 162 kts | 176° |
| 2026-04-30 06:20 | 52.26461 | 4.36788 | 5222 ft | 162 kts | 176° |
| 2026-04-30 06:21 | 52.25349 | 4.36646 | 5011 ft | 162 kts | 176° |
| 2026-04-30 06:21 | 52.24259 | 4.36766 | 4763 ft | 152 kts | 148° |
| 2026-04-30 06:21 | 52.23429 | 4.37714 | 4628 ft | 146 kts | 126° |
| 2026-04-30 06:21 | 52.22983 | 4.39123 | 4446 ft | 139 kts | 114° |
| 2026-04-30 06:22 | 52.22539 | 4.40639 | 4255 ft | 155 kts | 115° |
| 2026-04-30 06:22 | 52.22049 | 4.42309 | 4093 ft | 167 kts | 114° |
| 2026-04-30 06:22 | 52.21564 | 4.43982 | 3874 ft | 160 kts | 114° |
| 2026-04-30 06:22 | 52.21088 | 4.45633 | 3673 ft | 161 kts | 112° |
| 2026-04-30 06:23 | 52.20891 | 4.47426 | 3466 ft | 160 kts | 90° |
| 2026-04-30 06:23 | 52.20871 | 4.49184 | 3257 ft | 150 kts | 94° |
| 2026-04-30 06:23 | 52.20833 | 4.50800 | 3059 ft | 137 kts | 95° |
| 2026-04-30 06:23 | 52.20823 | 4.52330 | 2884 ft | 133 kts | 88° |
| 2026-04-30 06:24 | 52.21186 | 4.53690 | 2751 ft | 131 kts | 65° |
| 2026-04-30 06:24 | 52.21647 | 4.54886 | 2595 ft | 126 kts | 67° |
| 2026-04-30 06:24 | 52.22134 | 4.56143 | 2434 ft | 129 kts | 67° |
| 2026-04-30 06:24 | 52.22610 | 4.57383 | 2283 ft | 129 kts | 66° |
| 2026-04-30 06:25 | 52.23087 | 4.58604 | 2118 ft | 128 kts | 67° |
| 2026-04-30 06:25 | 52.23561 | 4.59836 | 1950 ft | 126 kts | 66° |
| 2026-04-30 06:25 | 52.24027 | 4.61041 | 1784 ft | 126 kts | 66° |
| 2026-04-30 06:25 | 52.24494 | 4.62251 | 1594 ft | 125 kts | 67° |
| 2026-04-30 06:26 | 52.24959 | 4.63463 | 1467 ft | 129 kts | 65° |
| 2026-04-30 06:26 | 52.25435 | 4.64687 | 1264 ft | 125 kts | 66° |
| 2026-04-30 06:26 | 52.25877 | 4.65843 | 1125 ft | 128 kts | 65° |
| 2026-04-30 06:26 | 52.26343 | 4.67041 | 971 ft | 119 kts | 65° |
| 2026-04-30 06:27 | 52.26794 | 4.68185 | 763 ft | 127 kts | 64° |
| 2026-04-30 06:27 | 52.27281 | 4.69471 | 720 ft | 134 kts | 64° |
| 2026-04-30 06:27 | 52.27772 | 4.70732 | 574 ft | 131 kts | 63° |
| 2026-04-30 06:27 | 52.28249 | 4.71985 | 339 ft | 129 kts | 63° |
| 2026-04-30 06:28 | 52.28724 | 4.73236 | 109 ft | 133 kts | 60° |
| 2026-04-30 06:28 | 52.29198 | 4.74466 | 7 ft | 114 kts | 60° |
| 2026-04-30 06:28 | 52.29487 | 4.75245 | 4 ft | 47 kts | 60° |
| 2026-04-30 06:28 | 52.29587 | 4.75499 | 4 ft | 13 kts | 57° |
| 2026-04-30 06:29 | 52.29622 | 4.75586 | 5 ft | 30 kts | 56° |
| 2026-04-30 06:29 | 52.29868 | 4.75886 | 5 ft | 32 kts | 27° |
| 2026-04-30 06:29 | 52.30020 | 4.76063 | 5 ft | 24 kts | 58° |
| 2026-04-30 06:29 | 52.30115 | 4.76318 | 6 ft | 32 kts | 58° |
| 2026-04-30 06:30 | 52.30260 | 4.76684 | 6 ft | 44 kts | 57° |
| 2026-04-30 06:30 | 52.30422 | 4.77111 | 5 ft | 43 kts | 58° |
| 2026-04-30 06:30 | 52.30567 | 4.77490 | 6 ft | 31 kts | 58° |
| 2026-04-30 06:30 | 52.30659 | 4.77598 | 6 ft | 13 kts | 358° |
| 2026-04-30 06:31 | 52.30815 | 4.77604 | 6 ft | 40 kts | 2° |
| 2026-04-30 06:31 | 52.31095 | 4.77631 | 6 ft | 40 kts | 2° |
| 2026-04-30 06:31 | 52.31372 | 4.77656 | 6 ft | 39 kts | 1° |
| 2026-04-30 06:31 | 52.31567 | 4.77435 | 6 ft | 35 kts | 292° |
| 2026-04-30 06:32 | 52.31566 | 4.77053 | 5 ft | 34 kts | 267° |
| 2026-04-30 06:32 | 52.31548 | 4.76717 | 6 ft | 16 kts | 248° |
| 2026-04-30 06:32 | 52.31479 | 4.76665 | 6 ft | 21 kts | 197° |
| 2026-04-30 06:32 | 52.31350 | 4.76542 | 5 ft | 19 kts | 210° |
| 2026-04-30 06:33 | 52.31285 | 4.76560 | 5 ft | 5 kts | 131° |
| 2026-04-30 06:33 | 52.31265 | 4.76609 | 5 ft | 0 kts | 123° |